Time,TemperatureF,DewpointF,PressureIn,WindDirection,WindDirectionDegrees,WindSpeedMPH,WindSpeedGustMPH,Humidity,HourlyPrecipIn,Conditions,Clouds,dailyrainin,SoftwareType,DateUTC
2013-06-13 00:00:00,77.9,71.6,29.91,West,267,0.0,0.0,81,0.00,,---,0.00,VWS V14.01,2013-06-13 04:00:00,
2013-06-13 00:01:00,77.9,71.6,29.91,West,267,0.0,0.0,81,0.00,,---,0.00,VWS V14.01,2013-06-13 04:01:00,
2013-06-13 00:06:00,77.9,71.6,29.91,SSW,206,0.0,0.0,81,0.00,,---,0.00,VWS V14.01,2013-06-13 04:06:00,
2013-06-13 00:11:00,77.9,71.6,29.94,SSE,160,0.0,0.0,81,0.00,,---,0.00,VWS V14.01,2013-06-13 04:11:00,
2013-06-13 00:16:00,77.7,71.4,29.94,SSE,166,0.0,0.0,81,0.00,,---,0.00,VWS V14.01,2013-06-13 04:16:00,
2013-06-13 00:21:00,77.7,71.4,29.94,South,177,0.0,0.0,81,0.00,,---,0.00,VWS V14.01,2013-06-13 04:21:00,
2013-06-13 00:26:00,77.5,71.6,29.91,SE,145,0.0,0.0,82,0.00,,---,0.00,VWS V14.01,2013-06-13 04:26:00,
2013-06-13 00:31:00,77.5,71.6,29.91,SW,221,0.0,0.0,82,0.00,,---,0.00,VWS V14.01,2013-06-13 04:31:00,
2013-06-13 00:36:00,77.7,71.8,29.91,SSW,198,3.6,3.6,82,0.00,,---,0.00,VWS V14.01,2013-06-13 04:36:00,
2013-06-13 00:41:00,77.5,71.6,29.91,South,182,0.0,0.0,82,0.00,,---,0.00,VWS V14.01,2013-06-13 04:41:00,
2013-06-13 00:46:00,77.5,71.6,29.91,WSW,240,3.1,3.1,82,0.00,,---,0.00,VWS V14.01,2013-06-13 04:46:00,
2013-06-13 00:47:00,77.5,71.6,29.91,WSW,240,3.1,3.1,82,0.00,,---,0.00,VWS V14.01,2013-06-13 04:47:00,
2013-06-13 00:51:00,77.7,72.2,29.91,SSW,199,0.0,4.0,83,0.00,,---,0.00,VWS V14.01,2013-06-13 04:51:00,
2013-06-13 00:52:00,77.7,72.2,29.91,SSW,199,0.0,0.0,83,0.00,,---,0.00,VWS V14.01,2013-06-13 04:52:00,
2013-06-13 00:56:00,77.7,72.2,29.91,SE,128,0.0,0.0,83,0.00,,---,0.00,VWS V14.01,2013-06-13 04:56:00,
2013-06-13 00:57:00,77.7,72.2,29.91,SE,128,0.0,0.0,83,0.00,,---,0.00,VWS V14.01,2013-06-13 04:57:00,
2013-06-13 01:01:00,77.7,72.5,29.91,WNW,291,0.0,0.0,84,0.00,,---,0.00,VWS V14.01,2013-06-13 05:01:00,
2013-06-13 01:02:00,77.7,72.5,29.91,WNW,291,0.0,0.0,84,0.00,,---,0.00,VWS V14.01,2013-06-13 05:02:00,
2013-06-13 01:06:00,77.7,72.5,29.91,SE,146,0.0,0.0,84,0.00,,---,0.00,VWS V14.01,2013-06-13 05:06:00,
2013-06-13 01:07:00,77.7,72.5,29.91,NW,317,0.0,0.0,84,0.00,,---,0.00,VWS V14.01,2013-06-13 05:07:00,
2013-06-13 01:11:00,77.7,72.5,29.91,SSW,205,0.0,0.0,84,0.00,,---,0.00,VWS V14.01,2013-06-13 05:11:00,
2013-06-13 01:12:00,77.7,72.5,29.91,SSW,208,0.0,0.0,84,0.00,,---,0.00,VWS V14.01,2013-06-13 05:12:00,
2013-06-13 01:16:00,77.7,72.5,29.91,South,186,0.0,0.0,84,0.00,,---,0.00,VWS V14.01,2013-06-13 05:16:00,
2013-06-13 01:17:00,77.7,72.5,29.91,South,186,0.0,0.0,84,0.00,,---,0.00,VWS V14.01,2013-06-13 05:17:00,
2013-06-13 01:21:00,77.7,72.8,29.91,South,173,0.0,0.0,85,0.00,,---,0.00,VWS V14.01,2013-06-13 05:21:00,
2013-06-13 01:22:00,77.7,72.8,29.91,South,173,0.0,0.0,85,0.00,,---,0.00,VWS V14.01,2013-06-13 05:22:00,
2013-06-13 01:26:00,77.7,72.8,29.91,WSW,255,2.2,2.2,85,0.00,,---,0.00,VWS V14.01,2013-06-13 05:26:00,
2013-06-13 01:27:00,77.7,72.8,29.91,WSW,255,2.2,2.2,85,0.00,,---,0.00,VWS V14.01,2013-06-13 05:27:00,
2013-06-13 01:31:00,77.7,72.8,29.91,SW,232,0.0,0.0,85,0.00,,---,0.00,VWS V14.01,2013-06-13 05:31:00,
2013-06-13 01:32:00,77.7,72.8,29.91,SW,232,0.0,0.0,85,0.00,,---,0.00,VWS V14.01,2013-06-13 05:32:00,
2013-06-13 01:37:00,77.7,72.8,29.91,NNE,23,0.0,0.0,85,0.00,,---,0.00,VWS V14.01,2013-06-13 05:37:00,
2013-06-13 01:42:00,77.7,73.2,29.91,SSW,200,0.0,0.0,86,0.00,,---,0.00,VWS V14.01,2013-06-13 05:42:00,
2013-06-13 01:47:00,77.5,73.0,29.91,South,189,0.0,0.0,86,0.00,,---,0.00,VWS V14.01,2013-06-13 05:47:00,
2013-06-13 01:52:00,77.5,73.0,29.91,SSE,160,0.0,0.0,86,0.00,,---,0.00,VWS V14.01,2013-06-13 05:52:00,
2013-06-13 01:57:00,77.5,73.0,29.91,SSW,195,0.0,0.0,86,0.00,,---,0.00,VWS V14.01,2013-06-13 05:57:00,
2013-06-13 01:58:00,77.5,73.0,29.91,SSW,195,0.0,0.0,86,0.00,,---,0.00,VWS V14.01,2013-06-13 05:58:00,
2013-06-13 02:02:00,77.5,73.0,29.91,ESE,102,0.0,0.0,86,0.00,,---,0.00,VWS V14.01,2013-06-13 06:02:00,
2013-06-13 02:03:00,77.5,73.0,29.91,East,101,0.0,0.0,86,0.00,,---,0.00,VWS V14.01,2013-06-13 06:03:00,
2013-06-13 02:07:00,77.5,73.4,29.91,SW,231,0.0,0.0,87,0.00,,---,0.00,VWS V14.01,2013-06-13 06:07:00,
2013-06-13 02:08:00,77.5,73.4,29.91,WNW,286,0.0,0.0,87,0.00,,---,0.00,VWS V14.01,2013-06-13 06:08:00,
2013-06-13 02:12:00,77.5,73.4,29.91,WSW,248,0.0,0.0,87,0.00,,---,0.00,VWS V14.01,2013-06-13 06:12:00,
2013-06-13 02:13:00,77.5,73.4,29.91,East,91,0.0,0.0,87,0.00,,---,0.00,VWS V14.01,2013-06-13 06:13:00,
2013-06-13 02:17:00,77.5,73.4,29.91,ESE,110,0.0,0.0,87,0.00,,---,0.00,VWS V14.01,2013-06-13 06:17:00,
2013-06-13 02:18:00,77.5,73.4,29.91,SSW,201,0.0,0.0,87,0.00,,---,0.00,VWS V14.01,2013-06-13 06:18:00,
2013-06-13 02:22:00,77.5,73.4,29.91,NE,52,0.0,0.0,87,0.00,,---,0.00,VWS V14.01,2013-06-13 06:22:00,
2013-06-13 02:23:00,77.5,73.4,29.91,SSW,210,0.0,0.0,87,0.00,,---,0.00,VWS V14.01,2013-06-13 06:23:00,
2013-06-13 02:27:00,77.5,73.7,29.91,NW,304,2.2,2.2,88,0.00,,---,0.00,VWS V14.01,2013-06-13 06:27:00,
2013-06-13 02:28:00,77.5,73.7,29.91,SSE,160,0.0,0.0,88,0.00,,---,0.00,VWS V14.01,2013-06-13 06:28:00,
2013-06-13 02:32:00,77.7,73.9,29.91,NNE,16,0.0,0.0,88,0.00,,---,0.00,VWS V14.01,2013-06-13 06:32:00,
2013-06-13 02:33:00,77.7,73.9,29.91,NNE,16,0.0,0.0,88,0.00,,---,0.00,VWS V14.01,2013-06-13 06:33:00,
2013-06-13 02:37:00,77.5,73.7,29.88,SW,228,0.0,0.0,88,0.00,,---,0.00,VWS V14.01,2013-06-13 06:37:00,
2013-06-13 02:38:00,77.5,73.7,29.88,West,265,0.0,0.0,88,0.00,,---,0.00,VWS V14.01,2013-06-13 06:38:00,
2013-06-13 02:42:00,77.5,73.7,29.88,SSE,165,0.0,0.0,88,0.00,,---,0.00,VWS V14.01,2013-06-13 06:42:00,
2013-06-13 02:43:00,77.5,73.7,29.88,SSE,165,0.0,0.0,88,0.00,,---,0.00,VWS V14.01,2013-06-13 06:43:00,
2013-06-13 02:47:00,77.5,73.7,29.88,South,174,0.0,0.0,88,0.00,,---,0.00,VWS V14.01,2013-06-13 06:47:00,
2013-06-13 02:48:00,77.5,73.7,29.88,South,174,0.0,0.0,88,0.00,,---,0.00,VWS V14.01,2013-06-13 06:48:00,
2013-06-13 02:52:00,77.5,73.7,29.88,East,93,0.0,0.0,88,0.00,,---,0.00,VWS V14.01,2013-06-13 06:52:00,
2013-06-13 02:53:00,77.5,73.7,29.88,East,89,0.0,0.0,88,0.00,,---,0.00,VWS V14.01,2013-06-13 06:53:00,
2013-06-13 02:57:00,77.5,73.7,29.88,WSW,257,0.0,4.0,88,0.00,,---,0.00,VWS V14.01,2013-06-13 06:57:00,
2013-06-13 02:58:00,77.5,73.7,29.88,WSW,257,0.0,0.0,88,0.00,,---,0.00,VWS V14.01,2013-06-13 06:58:00,
2013-06-13 03:02:00,77.5,73.7,29.88,SW,220,0.0,0.0,88,0.00,,---,0.00,VWS V14.01,2013-06-13 07:02:00,
2013-06-13 03:03:00,77.5,73.7,29.88,West,264,0.0,0.0,88,0.00,,---,0.00,VWS V14.01,2013-06-13 07:03:00,
2013-06-13 03:07:00,77.5,73.7,29.88,WSW,253,0.0,0.0,88,0.00,,---,0.00,VWS V14.01,2013-06-13 07:07:00,
2013-06-13 03:08:00,77.5,73.7,29.88,WSW,253,0.0,0.0,88,0.00,,---,0.00,VWS V14.01,2013-06-13 07:08:00,
2013-06-13 03:12:00,77.5,73.7,29.88,WNW,293,0.0,0.0,88,0.00,,---,0.00,VWS V14.01,2013-06-13 07:12:00,
2013-06-13 03:13:00,77.5,74.1,29.88,WNW,293,0.0,0.0,89,0.00,,---,0.00,VWS V14.01,2013-06-13 07:13:00,
2013-06-13 03:17:00,77.5,74.1,29.88,West,265,0.0,0.0,89,0.00,,---,0.00,VWS V14.01,2013-06-13 07:17:00,
2013-06-13 03:18:00,77.5,74.1,29.88,West,265,0.0,0.0,89,0.00,,---,0.00,VWS V14.01,2013-06-13 07:18:00,
2013-06-13 03:19:00,77.5,74.1,29.88,West,265,0.0,0.0,89,0.00,,---,0.00,VWS V14.01,2013-06-13 07:19:00,
2013-06-13 03:25:00,77.5,74.1,29.88,SSE,157,0.0,0.0,89,0.00,,---,0.00,VWS V14.01,2013-06-13 07:25:00,
2013-06-13 03:26:00,77.5,74.1,29.88,SSE,157,0.0,0.0,89,0.00,,---,0.00,VWS V14.01,2013-06-13 07:26:00,
2013-06-13 03:30:00,77.5,74.1,29.88,ESE,119,0.0,0.0,89,0.00,,---,0.00,VWS V14.01,2013-06-13 07:30:00,
2013-06-13 03:31:00,77.5,74.1,29.88,ESE,119,0.0,0.0,89,0.00,,---,0.00,VWS V14.01,2013-06-13 07:31:00,
2013-06-13 03:35:00,77.5,74.1,29.88,NNW,331,0.0,0.0,89,0.00,,---,0.00,VWS V14.01,2013-06-13 07:35:00,
2013-06-13 03:36:00,77.5,74.1,29.88,NNW,331,0.0,0.0,89,0.00,,---,0.00,VWS V14.01,2013-06-13 07:36:00,
2013-06-13 03:40:00,77.5,74.1,29.88,West,259,0.0,0.0,89,0.00,,---,0.00,VWS V14.01,2013-06-13 07:40:00,
2013-06-13 03:41:00,77.5,74.1,29.88,West,259,0.0,0.0,89,0.00,,---,0.00,VWS V14.01,2013-06-13 07:41:00,
2013-06-13 03:46:00,77.5,74.4,29.88,North,11,0.0,0.0,90,0.00,,---,0.00,VWS V14.01,2013-06-13 07:46:00,
2013-06-13 03:51:00,77.5,74.4,29.88,NW,306,0.0,0.0,90,0.00,,---,0.00,VWS V14.01,2013-06-13 07:51:00,
2013-06-13 03:56:00,77.5,74.4,29.88,SE,135,0.0,0.0,90,0.00,,---,0.00,VWS V14.01,2013-06-13 07:56:00,
2013-06-13 04:01:00,77.5,74.4,29.88,NNW,340,0.0,0.0,90,0.00,,---,0.00,VWS V14.01,2013-06-13 08:01:00,
2013-06-13 04:06:00,77.5,74.4,29.88,WSW,254,0.0,0.0,90,0.00,,---,0.00,VWS V14.01,2013-06-13 08:06:00,
2013-06-13 04:11:00,77.5,74.4,29.88,ENE,61,0.0,2.7,90,0.00,,---,0.00,VWS V14.01,2013-06-13 08:11:00,
2013-06-13 04:16:00,77.5,74.4,29.88,NNW,330,0.0,0.0,90,0.00,,---,0.00,VWS V14.01,2013-06-13 08:16:00,
2013-06-13 04:17:00,77.5,74.4,29.88,NNW,330,0.0,0.0,90,0.00,,---,0.00,VWS V14.01,2013-06-13 08:17:00,
2013-06-13 04:21:00,77.4,74.2,29.88,SSW,205,0.0,0.0,90,0.00,,---,0.00,VWS V14.01,2013-06-13 08:21:00,
2013-06-13 04:22:00,77.4,74.2,29.88,SSW,205,0.0,0.0,90,0.00,,---,0.00,VWS V14.01,2013-06-13 08:22:00,
2013-06-13 04:26:00,77.4,74.2,29.88,SSE,162,0.0,0.0,90,0.00,,---,0.00,VWS V14.01,2013-06-13 08:26:00,
2013-06-13 04:27:00,77.4,74.2,29.88,SSE,162,0.0,0.0,90,0.00,,---,0.00,VWS V14.01,2013-06-13 08:27:00,
2013-06-13 04:31:00,77.2,74.0,29.88,SSE,162,0.0,0.0,90,0.00,,---,0.00,VWS V14.01,2013-06-13 08:31:00,
2013-06-13 04:32:00,77.2,74.0,29.88,SSE,162,0.0,0.0,90,0.00,,---,0.00,VWS V14.01,2013-06-13 08:32:00,
2013-06-13 04:36:00,77.2,74.0,29.88,South,170,0.0,0.0,90,0.00,,---,0.00,VWS V14.01,2013-06-13 08:36:00,
2013-06-13 04:37:00,77.2,74.0,29.88,South,170,0.0,0.0,90,0.00,,---,0.00,VWS V14.01,2013-06-13 08:37:00,
2013-06-13 04:41:00,77.0,73.8,29.88,South,171,0.0,0.0,90,0.00,,---,0.00,VWS V14.01,2013-06-13 08:41:00,
2013-06-13 04:42:00,77.0,73.8,29.88,South,171,0.0,0.0,90,0.00,,---,0.00,VWS V14.01,2013-06-13 08:42:00,
2013-06-13 04:46:00,77.0,73.8,29.88,SSW,194,0.0,0.0,90,0.00,,---,0.00,VWS V14.01,2013-06-13 08:46:00,
2013-06-13 04:47:00,77.0,73.8,29.88,SSW,194,0.0,0.0,90,0.00,,---,0.00,VWS V14.01,2013-06-13 08:47:00,
2013-06-13 04:51:00,77.0,74.2,29.88,SSW,212,0.0,0.0,91,0.00,,---,0.00,VWS V14.01,2013-06-13 08:51:00,
2013-06-13 04:52:00,77.0,74.2,29.88,SSW,212,0.0,0.0,91,0.00,,---,0.00,VWS V14.01,2013-06-13 08:52:00,
2013-06-13 04:56:00,77.0,74.2,29.88,SSW,196,0.0,0.0,91,0.00,,---,0.00,VWS V14.01,2013-06-13 08:56:00,
2013-06-13 04:57:00,77.0,74.2,29.88,SSW,196,0.0,0.0,91,0.00,,---,0.00,VWS V14.01,2013-06-13 08:57:00,
2013-06-13 05:01:00,77.0,74.2,29.88,South,169,0.0,0.0,91,0.00,,---,0.00,VWS V14.01,2013-06-13 09:01:00,
2013-06-13 05:02:00,77.0,74.2,29.88,South,169,0.0,0.0,91,0.00,,---,0.00,VWS V14.01,2013-06-13 09:02:00,
2013-06-13 05:06:00,77.2,74.3,29.88,NNW,338,0.0,0.0,91,0.00,,---,0.00,VWS V14.01,2013-06-13 09:06:00,
2013-06-13 05:07:00,77.2,74.3,29.88,SSW,207,0.0,0.0,91,0.00,,---,0.00,VWS V14.01,2013-06-13 09:07:00,
2013-06-13 05:11:00,77.2,74.3,29.88,SSW,207,0.0,0.0,91,0.00,,---,0.00,VWS V14.01,2013-06-13 09:11:00,
2013-06-13 05:12:00,77.2,74.3,29.88,SSW,207,0.0,0.0,91,0.00,,---,0.00,VWS V14.01,2013-06-13 09:12:00,
2013-06-13 05:16:00,77.2,74.3,29.88,SSE,147,0.0,0.0,91,0.00,,---,0.00,VWS V14.01,2013-06-13 09:16:00,
2013-06-13 05:17:00,77.2,74.3,29.88,SSE,147,0.0,0.0,91,0.00,,---,0.00,VWS V14.01,2013-06-13 09:17:00,
2013-06-13 05:21:00,77.2,74.3,29.88,SSW,193,0.0,0.0,91,0.00,,---,0.00,VWS V14.01,2013-06-13 09:21:00,
2013-06-13 05:22:00,77.4,74.5,29.88,South,187,0.0,0.0,91,0.00,,---,0.00,VWS V14.01,2013-06-13 09:22:00,
2013-06-13 05:23:00,77.4,74.5,29.88,South,180,0.0,0.0,91,0.00,,---,0.00,VWS V14.01,2013-06-13 09:23:00,
2013-06-13 05:26:00,77.4,74.9,29.88,SE,141,0.0,0.0,92,0.00,,---,0.00,VWS V14.01,2013-06-13 09:26:00,
2013-06-13 05:27:00,77.4,74.9,29.88,NW,310,0.0,0.0,92,0.00,,---,0.00,VWS V14.01,2013-06-13 09:27:00,
2013-06-13 05:28:00,77.4,74.9,29.88,NW,310,0.0,0.0,92,0.00,,---,0.00,VWS V14.01,2013-06-13 09:28:00,
2013-06-13 05:31:00,77.4,74.5,29.88,WSW,247,0.0,0.0,91,0.00,,---,0.00,VWS V14.01,2013-06-13 09:31:00,
2013-06-13 05:32:00,77.4,74.5,29.88,SSE,167,0.0,0.0,91,0.00,,---,0.00,VWS V14.01,2013-06-13 09:32:00,
2013-06-13 05:33:00,77.4,74.5,29.88,SSE,167,0.0,0.0,91,0.00,,---,0.00,VWS V14.01,2013-06-13 09:33:00,
2013-06-13 05:37:00,77.2,74.3,29.88,SSW,199,0.0,0.0,91,0.00,,---,0.00,VWS V14.01,2013-06-13 09:37:00,
2013-06-13 05:38:00,77.2,74.3,29.88,SW,215,0.0,0.0,91,0.00,,---,0.00,VWS V14.01,2013-06-13 09:38:00,
2013-06-13 05:42:00,77.4,74.9,29.88,SE,142,0.0,0.0,92,0.00,,---,0.00,VWS V14.01,2013-06-13 09:42:00,
2013-06-13 05:43:00,77.4,74.9,29.88,SE,142,0.0,0.0,92,0.00,,---,0.00,VWS V14.01,2013-06-13 09:43:00,
2013-06-13 05:47:00,77.4,74.9,29.88,SSW,198,2.7,2.7,92,0.00,,---,0.00,VWS V14.01,2013-06-13 09:47:00,
2013-06-13 05:48:00,77.4,74.9,29.88,South,169,0.0,2.7,92,0.00,,---,0.00,VWS V14.01,2013-06-13 09:48:00,
2013-06-13 05:52:00,77.2,74.3,29.88,South,191,2.7,2.7,91,0.00,,---,0.00,VWS V14.01,2013-06-13 09:52:00,
2013-06-13 05:53:00,77.2,74.3,29.88,South,187,2.2,3.1,91,0.00,,---,0.00,VWS V14.01,2013-06-13 09:53:00,
2013-06-13 05:57:00,77.2,74.7,29.88,South,190,0.0,0.0,92,0.00,,---,0.00,VWS V14.01,2013-06-13 09:57:00,
2013-06-13 05:58:00,77.2,74.7,29.88,South,190,0.0,0.0,92,0.00,,---,0.00,VWS V14.01,2013-06-13 09:58:00,
2013-06-13 06:02:00,77.2,74.7,29.88,South,172,0.0,0.0,92,0.00,,---,0.00,VWS V14.01,2013-06-13 10:02:00,
2013-06-13 06:03:00,77.2,74.7,29.88,South,172,0.0,0.0,92,0.00,,---,0.00,VWS V14.01,2013-06-13 10:03:00,
2013-06-13 06:07:00,77.4,74.9,29.88,South,186,0.0,0.0,92,0.00,,---,0.00,VWS V14.01,2013-06-13 10:07:00,
2013-06-13 06:08:00,77.4,74.9,29.88,South,186,0.0,0.0,92,0.00,,---,0.00,VWS V14.01,2013-06-13 10:08:00,
2013-06-13 06:12:00,77.4,74.9,29.88,ESE,122,0.0,0.0,92,0.00,,---,0.00,VWS V14.01,2013-06-13 10:12:00,
2013-06-13 06:13:00,77.4,74.9,29.88,ESE,105,0.0,0.0,92,0.00,,---,0.00,VWS V14.01,2013-06-13 10:13:00,
2013-06-13 06:17:00,77.4,74.9,29.88,SE,146,0.0,0.0,92,0.00,,---,0.00,VWS V14.01,2013-06-13 10:17:00,
2013-06-13 06:18:00,77.4,74.9,29.88,SSE,164,0.0,0.0,92,0.00,,---,0.00,VWS V14.01,2013-06-13 10:18:00,
2013-06-13 06:22:00,77.5,75.4,29.88,SSW,192,0.0,0.0,93,0.00,,---,0.00,VWS V14.01,2013-06-13 10:22:00,
2013-06-13 06:23:00,77.5,75.4,29.88,SSE,155,2.2,2.2,93,0.00,,---,0.00,VWS V14.01,2013-06-13 10:23:00,
2013-06-13 06:24:00,77.5,75.4,29.88,SSE,149,0.0,0.0,93,0.00,,---,0.00,VWS V14.01,2013-06-13 10:24:00,
2013-06-13 06:27:00,77.5,75.4,29.88,ESE,112,0.0,0.0,93,0.00,,---,0.00,VWS V14.01,2013-06-13 10:27:00,
2013-06-13 06:28:00,77.5,75.4,29.88,ESE,112,0.0,0.0,93,0.00,,---,0.00,VWS V14.01,2013-06-13 10:28:00,
2013-06-13 06:29:00,77.5,75.4,29.88,SSE,149,0.0,0.0,93,0.00,,---,0.00,VWS V14.01,2013-06-13 10:29:00,
2013-06-13 06:32:00,77.7,75.5,29.88,WSW,258,0.0,0.0,93,0.00,,---,0.00,VWS V14.01,2013-06-13 10:32:00,
2013-06-13 06:33:00,77.7,75.5,29.88,South,172,0.0,0.0,93,0.00,,---,0.00,VWS V14.01,2013-06-13 10:33:00,
2013-06-13 06:34:00,77.7,75.5,29.88,SW,232,5.4,5.4,93,0.00,,---,0.00,VWS V14.01,2013-06-13 10:34:00,
2013-06-13 06:37:00,77.7,75.5,29.88,NE,54,0.0,0.0,93,0.00,,---,0.00,VWS V14.01,2013-06-13 10:37:00,
2013-06-13 06:38:00,77.7,75.5,29.88,SE,146,0.0,0.0,93,0.00,,---,0.00,VWS V14.01,2013-06-13 10:38:00,
2013-06-13 06:39:00,77.7,75.5,29.88,South,191,4.0,4.0,93,0.00,,---,0.00,VWS V14.01,2013-06-13 10:39:00,
2013-06-13 06:42:00,77.9,76.0,29.88,WSW,239,0.0,0.0,94,0.00,,---,0.00,VWS V14.01,2013-06-13 10:42:00,
2013-06-13 06:43:00,77.9,76.0,29.88,WSW,239,0.0,0.0,94,0.00,,---,0.00,VWS V14.01,2013-06-13 10:43:00,
2013-06-13 06:44:00,77.9,76.0,29.88,WSW,241,0.0,0.0,94,0.00,,---,0.00,VWS V14.01,2013-06-13 10:44:00,
2013-06-13 06:47:00,77.9,76.0,29.88,ESE,122,0.0,0.0,94,0.00,,---,0.00,VWS V14.01,2013-06-13 10:47:00,
2013-06-13 06:48:00,77.9,76.0,29.88,ESE,122,0.0,0.0,94,0.00,,---,0.00,VWS V14.01,2013-06-13 10:48:00,
2013-06-13 06:49:00,77.9,76.0,29.85,SE,132,0.0,4.9,94,0.00,,---,0.00,VWS V14.01,2013-06-13 10:49:00,
2013-06-13 06:53:00,78.1,76.2,29.85,SSW,198,0.0,0.0,94,0.00,,---,0.00,VWS V14.01,2013-06-13 10:53:00,
2013-06-13 06:54:00,78.1,76.2,29.85,SSW,205,3.1,3.1,94,0.00,,---,0.00,VWS V14.01,2013-06-13 10:54:00,
2013-06-13 06:58:00,78.1,76.2,29.85,SE,138,4.0,4.0,94,0.00,,---,0.00,VWS V14.01,2013-06-13 10:58:00,
2013-06-13 06:59:00,78.3,76.4,29.85,SSE,159,3.1,3.1,94,0.00,,---,0.00,VWS V14.01,2013-06-13 10:59:00,
2013-06-13 07:03:00,78.3,76.7,29.85,ESE,103,0.0,4.0,95,0.00,,---,0.00,VWS V14.01,2013-06-13 11:03:00,
2013-06-13 07:04:00,78.3,76.7,29.85,ESE,103,0.0,0.0,95,0.00,,---,0.00,VWS V14.01,2013-06-13 11:04:00,
2013-06-13 07:08:00,78.4,76.9,29.85,SSW,196,0.0,4.9,95,0.00,,---,0.00,VWS V14.01,2013-06-13 11:08:00,
2013-06-13 07:09:00,78.4,76.9,29.85,SSW,208,0.0,0.0,95,0.00,,---,0.00,VWS V14.01,2013-06-13 11:09:00,
2013-06-13 07:13:00,78.6,77.1,29.85,SE,136,3.1,3.1,95,0.00,,---,0.00,VWS V14.01,2013-06-13 11:13:00,
2013-06-13 07:14:00,78.6,77.1,29.85,WNW,298,0.0,3.1,95,0.00,,---,0.00,VWS V14.01,2013-06-13 11:14:00,
2013-06-13 07:18:00,78.8,77.2,29.85,SSW,212,0.0,0.0,95,0.00,,---,0.00,VWS V14.01,2013-06-13 11:18:00,
2013-06-13 07:19:00,78.8,76.9,29.85,SW,221,2.7,3.1,94,0.00,,---,0.00,VWS V14.01,2013-06-13 11:19:00,
2013-06-13 07:23:00,79.0,77.4,29.85,SSE,157,0.0,0.0,95,0.00,,---,0.00,VWS V14.01,2013-06-13 11:23:00,
2013-06-13 07:24:00,79.0,77.4,29.85,WNW,285,3.1,3.1,95,0.00,,---,0.00,VWS V14.01,2013-06-13 11:24:00,
2013-06-13 07:28:00,79.2,77.6,29.85,SW,222,2.7,3.6,95,0.00,,---,0.00,VWS V14.01,2013-06-13 11:28:00,
2013-06-13 07:29:00,79.2,77.6,29.85,WNW,294,3.6,3.6,95,0.00,,---,0.00,VWS V14.01,2013-06-13 11:29:00,
2013-06-13 07:30:00,79.2,77.6,29.85,SE,134,4.9,5.4,95,0.00,,---,0.00,VWS V14.01,2013-06-13 11:30:00,
2013-06-13 07:33:00,79.3,77.8,29.85,WSW,252,3.1,3.1,95,0.00,,---,0.00,VWS V14.01,2013-06-13 11:33:00,
2013-06-13 07:34:00,79.3,77.8,29.85,SE,144,3.6,3.6,95,0.00,,---,0.00,VWS V14.01,2013-06-13 11:34:00,
2013-06-13 07:35:00,79.3,77.8,29.85,SW,219,4.0,4.0,95,0.00,,---,0.00,VWS V14.01,2013-06-13 11:35:00,
2013-06-13 07:38:00,79.5,78.0,29.85,WSW,251,5.4,8.1,95,0.00,,---,0.00,VWS V14.01,2013-06-13 11:38:00,
2013-06-13 07:39:00,79.5,78.0,29.85,South,180,0.0,8.1,95,0.00,,---,0.00,VWS V14.01,2013-06-13 11:39:00,
2013-06-13 07:40:00,79.5,78.0,29.85,SE,126,3.6,7.2,95,0.00,,---,0.00,VWS V14.01,2013-06-13 11:40:00,
2013-06-13 07:43:00,79.9,78.3,29.85,ENE,60,3.6,3.6,95,0.00,,---,0.00,VWS V14.01,2013-06-13 11:43:00,
2013-06-13 07:44:00,79.9,78.3,29.85,South,187,3.1,3.6,95,0.00,,---,0.00,VWS V14.01,2013-06-13 11:44:00,
2013-06-13 07:45:00,79.9,78.3,29.85,NNW,341,0.0,0.0,95,0.00,,---,0.00,VWS V14.01,2013-06-13 11:45:00,
2013-06-13 07:48:00,79.9,78.3,29.85,South,180,2.7,4.0,95,0.00,,---,0.00,VWS V14.01,2013-06-13 11:48:00,
2013-06-13 07:49:00,80.1,78.5,29.85,SW,215,3.1,4.0,95,0.00,,---,0.00,VWS V14.01,2013-06-13 11:49:00,
2013-06-13 07:50:00,80.1,78.5,29.85,South,187,5.4,5.4,95,0.00,,---,0.00,VWS V14.01,2013-06-13 11:50:00,
2013-06-13 07:53:00,80.2,78.4,29.85,South,180,0.0,0.0,94,0.00,,---,0.00,VWS V14.01,2013-06-13 11:53:00,
2013-06-13 07:54:00,80.2,78.4,29.85,South,169,5.8,5.8,94,0.00,,---,0.00,VWS V14.01,2013-06-13 11:54:00,
2013-06-13 07:55:00,80.2,78.4,29.85,SW,235,4.0,9.6,94,0.00,,---,0.00,VWS V14.01,2013-06-13 11:55:00,
2013-06-13 07:58:00,80.4,78.5,29.85,SSE,154,4.0,4.0,94,0.00,,---,0.00,VWS V14.01,2013-06-13 11:58:00,
2013-06-13 07:59:00,80.6,78.7,29.85,SSE,154,4.0,4.0,94,0.00,,---,0.00,VWS V14.01,2013-06-13 11:59:00,
2013-06-13 08:00:00,80.6,78.7,29.85,SSW,208,0.0,4.0,94,0.00,,---,0.00,VWS V14.01,2013-06-13 12:00:00,
2013-06-13 08:03:00,80.8,78.6,29.85,SE,138,3.6,3.6,93,0.00,,---,0.00,VWS V14.01,2013-06-13 12:03:00,
2013-06-13 08:04:00,80.8,78.6,29.85,SE,138,3.6,3.6,93,0.00,,---,0.00,VWS V14.01,2013-06-13 12:04:00,
2013-06-13 08:05:00,80.8,78.6,29.85,SE,138,3.6,3.6,93,0.00,,---,0.00,VWS V14.01,2013-06-13 12:05:00,
2013-06-13 08:08:00,81.0,78.4,29.85,SE,124,4.9,4.9,92,0.00,,---,0.00,VWS V14.01,2013-06-13 12:08:00,
2013-06-13 08:09:00,81.0,78.4,29.85,SE,124,4.9,4.9,92,0.00,,---,0.00,VWS V14.01,2013-06-13 12:09:00,
2013-06-13 08:10:00,81.1,78.6,29.85,SE,124,4.9,4.9,92,0.00,,---,0.00,VWS V14.01,2013-06-13 12:10:00,
2013-06-13 08:13:00,81.1,78.6,29.85,SE,124,4.9,4.9,92,0.00,,---,0.00,VWS V14.01,2013-06-13 12:13:00,
2013-06-13 08:14:00,81.1,78.6,29.85,East,89,2.2,2.2,92,0.00,,---,0.00,VWS V14.01,2013-06-13 12:14:00,
2013-06-13 08:15:00,81.1,78.6,29.85,East,89,2.2,2.2,92,0.00,,---,0.00,VWS V14.01,2013-06-13 12:15:00,
2013-06-13 08:18:00,81.5,77.9,29.85,WSW,257,2.7,2.7,89,0.00,,---,0.00,VWS V14.01,2013-06-13 12:18:00,
2013-06-13 08:19:00,81.5,77.9,29.85,WSW,257,2.7,2.7,89,0.00,,---,0.00,VWS V14.01,2013-06-13 12:19:00,
2013-06-13 08:20:00,81.5,77.9,29.85,WSW,257,2.7,2.7,89,0.00,,---,0.00,VWS V14.01,2013-06-13 12:20:00,
2013-06-13 08:23:00,81.7,77.8,29.85,SSE,166,2.7,2.7,88,0.00,,---,0.00,VWS V14.01,2013-06-13 12:23:00,
2013-06-13 08:24:00,81.7,77.8,29.85,SSE,166,2.7,2.7,88,0.00,,---,0.00,VWS V14.01,2013-06-13 12:24:00,
2013-06-13 08:25:00,81.7,77.8,29.85,SSE,166,2.7,2.7,88,0.00,,---,0.00,VWS V14.01,2013-06-13 12:25:00,
2013-06-13 08:28:00,81.9,76.9,29.85,SSW,198,2.7,2.7,85,0.00,,---,0.00,VWS V14.01,2013-06-13 12:28:00,
2013-06-13 08:29:00,81.9,76.9,29.85,SSW,198,2.7,2.7,85,0.00,,---,0.00,VWS V14.01,2013-06-13 12:29:00,
2013-06-13 08:30:00,81.9,76.9,29.85,SSW,198,2.7,2.7,85,0.00,,---,0.00,VWS V14.01,2013-06-13 12:30:00,
2013-06-13 08:33:00,82.0,74.5,29.85,SSW,200,3.1,3.1,78,0.00,,---,0.00,VWS V14.01,2013-06-13 12:33:00,
2013-06-13 08:34:00,82.2,74.3,29.85,SSW,200,3.1,3.1,77,0.00,,---,0.00,VWS V14.01,2013-06-13 12:34:00,
2013-06-13 08:35:00,82.2,74.3,29.85,North,6,2.7,3.1,77,0.00,,---,0.00,VWS V14.01,2013-06-13 12:35:00,
2013-06-13 08:38:00,82.4,70.8,29.85,North,6,2.7,2.7,68,0.00,,---,0.00,VWS V14.01,2013-06-13 12:38:00,
2013-06-13 08:39:00,82.4,69.9,29.85,North,6,2.7,2.7,66,0.00,,---,0.00,VWS V14.01,2013-06-13 12:39:00,
2013-06-13 08:40:00,82.4,69.9,29.85,North,6,2.7,2.7,66,0.00,,---,0.00,VWS V14.01,2013-06-13 12:40:00,
2013-06-13 08:44:00,82.4,69.5,29.85,North,6,2.7,2.7,65,0.00,,---,0.00,VWS V14.01,2013-06-13 12:44:00,
2013-06-13 08:45:00,82.6,69.6,29.85,North,6,2.7,2.7,65,0.00,,---,0.00,VWS V14.01,2013-06-13 12:45:00,
2013-06-13 08:48:00,82.8,68.9,29.85,SSW,194,4.0,4.9,63,0.00,,---,0.00,VWS V14.01,2013-06-13 12:48:00,
2013-06-13 08:49:00,82.8,68.9,29.85,South,187,3.1,3.1,63,0.00,,---,0.00,VWS V14.01,2013-06-13 12:49:00,
2013-06-13 08:50:00,82.8,68.9,29.85,South,187,3.1,3.1,63,0.00,,---,0.00,VWS V14.01,2013-06-13 12:50:00,
2013-06-13 08:51:00,82.8,68.9,29.85,South,187,3.1,3.1,63,0.00,,---,0.00,VWS V14.01,2013-06-13 12:51:00,
2013-06-13 08:53:00,82.8,67.5,29.85,South,187,3.1,3.1,60,0.00,,---,0.00,VWS V14.01,2013-06-13 12:53:00,
2013-06-13 08:54:00,82.8,67.5,29.85,South,187,3.1,3.1,60,0.00,,---,0.00,VWS V14.01,2013-06-13 12:54:00,
2013-06-13 08:55:00,82.8,66.5,29.85,South,187,3.1,3.1,58,0.00,,---,0.00,VWS V14.01,2013-06-13 12:55:00,
2013-06-13 08:56:00,82.8,66.5,29.85,SW,224,3.6,3.6,58,0.00,,---,0.00,VWS V14.01,2013-06-13 12:56:00,
2013-06-13 08:58:00,82.8,66.5,29.85,West,280,2.2,2.2,58,0.00,,---,0.00,VWS V14.01,2013-06-13 12:58:00,
2013-06-13 08:59:00,83.1,67.3,29.85,West,280,2.2,2.2,59,0.00,,---,0.00,VWS V14.01,2013-06-13 12:59:00,
2013-06-13 09:00:00,83.1,67.3,29.85,West,280,2.2,2.2,59,0.00,,---,0.00,VWS V14.01,2013-06-13 13:00:00,
2013-06-13 09:01:00,83.1,67.3,29.85,West,280,2.2,2.2,59,0.00,,---,0.00,VWS V14.01,2013-06-13 13:01:00,
2013-06-13 09:04:00,83.1,66.8,29.85,SSW,194,4.0,4.0,58,0.00,,---,0.00,VWS V14.01,2013-06-13 13:04:00,
2013-06-13 09:05:00,83.1,66.8,29.85,SSW,194,4.0,4.0,58,0.00,,---,0.00,VWS V14.01,2013-06-13 13:05:00,
2013-06-13 09:06:00,83.1,66.8,29.85,SSW,194,4.0,4.0,58,0.00,,---,0.00,VWS V14.01,2013-06-13 13:06:00,
2013-06-13 09:09:00,83.1,66.8,29.85,SSW,194,4.0,4.0,58,0.00,,---,0.00,VWS V14.01,2013-06-13 13:09:00,
2013-06-13 09:10:00,84.0,67.2,29.85,ESE,120,3.6,4.0,57,0.00,,---,0.00,VWS V14.01,2013-06-13 13:10:00,
2013-06-13 09:11:00,84.0,66.7,29.85,ESE,120,3.6,3.6,56,0.00,,---,0.00,VWS V14.01,2013-06-13 13:11:00,
2013-06-13 09:14:00,84.0,65.1,29.85,SW,217,2.7,2.7,53,0.00,,---,0.00,VWS V14.01,2013-06-13 13:14:00,
2013-06-13 09:15:00,84.0,65.1,29.85,SSE,160,2.7,2.7,53,0.00,,---,0.00,VWS V14.01,2013-06-13 13:15:00,
2013-06-13 09:16:00,84.2,65.8,29.85,West,275,3.1,3.1,54,0.00,,---,0.00,VWS V14.01,2013-06-13 13:16:00,
2013-06-13 09:19:00,84.4,65.9,29.85,SSE,155,2.7,2.7,54,0.00,,---,0.00,VWS V14.01,2013-06-13 13:19:00,
2013-06-13 09:20:00,84.6,65.6,29.85,South,172,4.0,4.0,53,0.00,,---,0.00,VWS V14.01,2013-06-13 13:20:00,
2013-06-13 09:21:00,84.6,65.6,29.85,South,172,4.0,4.0,53,0.00,,---,0.00,VWS V14.01,2013-06-13 13:21:00,
2013-06-13 09:24:00,84.7,64.1,29.85,SE,139,2.7,3.1,50,0.00,,---,0.00,VWS V14.01,2013-06-13 13:24:00,
2013-06-13 09:25:00,84.7,64.1,29.85,SE,139,2.7,2.7,50,0.00,,---,0.00,VWS V14.01,2013-06-13 13:25:00,
2013-06-13 09:26:00,84.7,64.1,29.85,SE,139,2.7,2.7,50,0.00,,---,0.00,VWS V14.01,2013-06-13 13:26:00,
2013-06-13 09:29:00,84.6,63.3,29.85,SSE,156,7.6,7.6,49,0.00,,---,0.00,VWS V14.01,2013-06-13 13:29:00,
2013-06-13 09:30:00,84.6,63.3,29.85,SSE,156,7.6,7.6,49,0.00,,---,0.00,VWS V14.01,2013-06-13 13:30:00,
2013-06-13 09:31:00,84.6,63.3,29.85,South,170,4.0,7.6,49,0.00,,---,0.00,VWS V14.01,2013-06-13 13:31:00,
2013-06-13 09:34:00,84.6,63.3,29.85,South,182,0.0,0.0,49,0.00,,---,0.00,VWS V14.01,2013-06-13 13:34:00,
2013-06-13 09:35:00,84.7,64.1,29.85,SSE,157,4.0,4.0,50,0.00,,---,0.00,VWS V14.01,2013-06-13 13:35:00,
2013-06-13 09:36:00,84.7,64.1,29.85,SSE,157,4.0,4.0,50,0.00,,---,0.00,VWS V14.01,2013-06-13 13:36:00,
2013-06-13 09:39:00,84.9,64.2,29.85,SSE,149,5.8,5.8,50,0.00,,---,0.00,VWS V14.01,2013-06-13 13:39:00,
2013-06-13 09:40:00,84.9,64.2,29.85,SSW,194,5.4,5.4,50,0.00,,---,0.00,VWS V14.01,2013-06-13 13:40:00,
2013-06-13 09:41:00,84.9,64.2,29.85,SE,126,3.1,5.4,50,0.00,,---,0.00,VWS V14.01,2013-06-13 13:41:00,
2013-06-13 09:44:00,85.1,62.6,29.85,SE,126,3.1,3.1,47,0.00,,---,0.00,VWS V14.01,2013-06-13 13:44:00,
2013-06-13 09:45:00,85.1,62.6,29.85,WNW,285,4.0,4.0,47,0.00,,---,0.00,VWS V14.01,2013-06-13 13:45:00,
2013-06-13 09:46:00,85.1,62.6,29.85,WNW,285,4.0,4.0,47,0.00,,---,0.00,VWS V14.01,2013-06-13 13:46:00,
2013-06-13 09:49:00,85.1,62.6,29.85,WNW,285,4.0,4.0,47,0.00,,---,0.00,VWS V14.01,2013-06-13 13:49:00,
2013-06-13 09:50:00,85.1,62.6,29.85,WSW,250,5.4,5.4,47,0.00,,---,0.00,VWS V14.01,2013-06-13 13:50:00,
2013-06-13 09:51:00,85.1,62.6,29.85,WSW,250,5.4,5.4,47,0.00,,---,0.00,VWS V14.01,2013-06-13 13:51:00,
2013-06-13 09:54:00,84.7,62.3,29.85,South,172,5.4,5.4,47,0.00,,---,0.00,VWS V14.01,2013-06-13 13:54:00,
2013-06-13 09:55:00,84.7,62.3,29.85,WSW,238,5.4,5.4,47,0.00,,---,0.00,VWS V14.01,2013-06-13 13:55:00,
2013-06-13 09:56:00,84.6,62.7,29.85,WSW,238,5.4,5.4,48,0.00,,---,0.00,VWS V14.01,2013-06-13 13:56:00,
2013-06-13 09:59:00,84.6,62.7,29.85,SW,221,4.9,5.4,48,0.00,,---,0.00,VWS V14.01,2013-06-13 13:59:00,
2013-06-13 10:00:00,84.9,64.2,29.85,SW,221,4.9,4.9,50,0.00,,---,0.00,VWS V14.01,2013-06-13 14:00:00,
2013-06-13 10:01:00,84.9,63.7,29.85,SW,221,4.9,4.9,49,0.00,,---,0.00,VWS V14.01,2013-06-13 14:01:00,
2013-06-13 10:04:00,84.9,63.7,29.85,SW,221,4.9,4.9,49,0.00,,---,0.00,VWS V14.01,2013-06-13 14:04:00,
2013-06-13 10:05:00,84.9,63.7,29.85,ENE,63,5.8,5.8,49,0.00,,---,0.00,VWS V14.01,2013-06-13 14:05:00,
2013-06-13 10:06:00,85.1,63.2,29.85,South,184,5.8,5.8,48,0.00,,---,0.00,VWS V14.01,2013-06-13 14:06:00,
2013-06-13 10:07:00,85.1,63.2,29.85,SE,129,3.1,5.8,48,0.00,,---,0.00,VWS V14.01,2013-06-13 14:07:00,
2013-06-13 10:09:00,85.1,62.6,29.85,SSW,207,3.6,3.6,47,0.00,,---,0.00,VWS V14.01,2013-06-13 14:09:00,
2013-06-13 10:10:00,85.1,62.6,29.85,SSW,207,3.6,3.6,47,0.00,,---,0.00,VWS V14.01,2013-06-13 14:10:00,
2013-06-13 10:11:00,85.1,62.6,29.85,SSW,207,3.6,3.6,47,0.00,,---,0.00,VWS V14.01,2013-06-13 14:11:00,
2013-06-13 10:12:00,85.1,62.6,29.85,SSW,207,3.6,3.6,47,0.00,,---,0.00,VWS V14.01,2013-06-13 14:12:00,
2013-06-13 10:14:00,85.1,62.6,29.85,SE,138,3.6,3.6,47,0.00,,---,0.00,VWS V14.01,2013-06-13 14:14:00,
2013-06-13 10:15:00,85.1,62.6,29.85,South,182,4.9,4.9,47,0.00,,---,0.00,VWS V14.01,2013-06-13 14:15:00,
2013-06-13 10:16:00,85.1,62.6,29.85,South,182,4.9,4.9,47,0.00,,---,0.00,VWS V14.01,2013-06-13 14:16:00,
2013-06-13 10:17:00,85.1,62.6,29.85,South,182,4.9,4.9,47,0.00,,---,0.00,VWS V14.01,2013-06-13 14:17:00,
2013-06-13 10:19:00,85.5,63.5,29.85,South,182,4.9,4.9,48,0.00,,---,0.00,VWS V14.01,2013-06-13 14:19:00,
2013-06-13 10:20:00,85.6,63.1,29.85,South,187,2.7,2.7,47,0.00,,---,0.00,VWS V14.01,2013-06-13 14:20:00,
2013-06-13 10:21:00,85.6,63.1,29.85,SSW,213,0.0,2.7,47,0.00,,---,0.00,VWS V14.01,2013-06-13 14:21:00,
2013-06-13 10:22:00,85.6,63.1,29.85,SSW,213,0.0,0.0,47,0.00,,---,0.00,VWS V14.01,2013-06-13 14:22:00,
2013-06-13 10:24:00,85.6,63.1,29.85,SSW,213,0.0,0.0,47,0.00,,---,0.00,VWS V14.01,2013-06-13 14:24:00,
2013-06-13 10:25:00,85.6,63.1,29.85,SSW,206,2.7,2.7,47,0.00,,---,0.00,VWS V14.01,2013-06-13 14:25:00,
2013-06-13 10:26:00,85.8,62.0,29.85,SSW,206,2.7,2.7,45,0.00,,---,0.00,VWS V14.01,2013-06-13 14:26:00,
2013-06-13 10:27:00,85.8,62.0,29.85,South,185,2.7,2.7,45,0.00,,---,0.00,VWS V14.01,2013-06-13 14:27:00,
2013-06-13 10:29:00,85.8,62.0,29.85,SSW,202,5.4,5.4,45,0.00,,---,0.00,VWS V14.01,2013-06-13 14:29:00,
2013-06-13 10:31:00,85.8,62.0,29.85,South,171,4.0,5.4,45,0.00,,---,0.00,VWS V14.01,2013-06-13 14:31:00,
2013-06-13 10:32:00,85.6,61.9,29.85,South,171,4.0,4.0,45,0.00,,---,0.00,VWS V14.01,2013-06-13 14:32:00,
2013-06-13 10:34:00,85.6,61.9,29.85,SSE,165,3.1,4.0,45,0.00,,---,0.00,VWS V14.01,2013-06-13 14:34:00,
2013-06-13 10:36:00,86.0,62.2,29.85,SSW,206,3.1,3.1,45,0.00,,---,0.00,VWS V14.01,2013-06-13 14:36:00,
2013-06-13 10:37:00,86.0,62.2,29.85,SSW,206,3.1,3.1,45,0.00,,---,0.00,VWS V14.01,2013-06-13 14:37:00,
2013-06-13 10:39:00,86.0,62.2,29.85,SSW,206,3.1,3.1,45,0.00,,---,0.00,VWS V14.01,2013-06-13 14:39:00,
2013-06-13 10:41:00,86.0,62.2,29.85,SW,214,2.7,3.1,45,0.00,,---,0.00,VWS V14.01,2013-06-13 14:41:00,
2013-06-13 10:42:00,86.0,62.2,29.85,SW,214,2.7,2.7,45,0.00,,---,0.00,VWS V14.01,2013-06-13 14:42:00,
2013-06-13 10:44:00,86.2,62.4,29.85,SW,214,2.7,2.7,45,0.00,,---,0.00,VWS V14.01,2013-06-13 14:44:00,
2013-06-13 10:46:00,86.5,62.7,29.85,SW,214,2.7,2.7,45,0.00,,---,0.00,VWS V14.01,2013-06-13 14:46:00,
2013-06-13 10:47:00,86.5,62.7,29.85,WSW,248,6.3,6.3,45,0.00,,---,0.00,VWS V14.01,2013-06-13 14:47:00,
2013-06-13 10:49:00,86.5,62.7,29.85,SW,224,8.7,8.7,45,0.00,,---,0.00,VWS V14.01,2013-06-13 14:49:00,
2013-06-13 10:51:00,86.5,62.7,29.85,SW,224,8.7,8.7,45,0.00,,---,0.00,VWS V14.01,2013-06-13 14:51:00,
2013-06-13 10:52:00,86.4,61.2,29.85,SW,224,8.7,8.7,43,0.00,,---,0.00,VWS V14.01,2013-06-13 14:52:00,
2013-06-13 10:54:00,86.4,61.2,29.85,SW,224,8.7,8.7,43,0.00,,---,0.00,VWS V14.01,2013-06-13 14:54:00,
2013-06-13 10:56:00,86.2,61.1,29.85,WSW,248,5.8,5.8,43,0.00,,---,0.00,VWS V14.01,2013-06-13 14:56:00,
2013-06-13 10:57:00,86.2,61.1,29.85,WNW,294,6.3,6.3,43,0.00,,---,0.00,VWS V14.01,2013-06-13 14:57:00,
2013-06-13 10:59:00,86.2,61.1,29.85,ENE,72,8.3,8.3,43,0.00,,---,0.00,VWS V14.01,2013-06-13 14:59:00,
2013-06-13 11:01:00,85.6,61.2,29.85,SSW,205,4.0,4.0,44,0.00,,---,0.00,VWS V14.01,2013-06-13 15:01:00,
2013-06-13 11:02:00,85.6,61.2,29.85,SE,137,3.6,3.6,44,0.00,,---,0.00,VWS V14.01,2013-06-13 15:02:00,
2013-06-13 11:03:00,85.6,61.2,29.85,SE,137,3.6,3.6,44,0.00,,---,0.00,VWS V14.01,2013-06-13 15:03:00,
2013-06-13 11:04:00,85.6,61.2,29.85,SE,137,3.6,3.6,44,0.00,,---,0.00,VWS V14.01,2013-06-13 15:04:00,
2013-06-13 11:06:00,85.6,61.2,29.85,SE,137,3.6,3.6,44,0.00,,---,0.00,VWS V14.01,2013-06-13 15:06:00,
2013-06-13 11:07:00,85.5,63.0,29.85,SE,137,3.6,3.6,47,0.00,,---,0.00,VWS V14.01,2013-06-13 15:07:00,
2013-06-13 11:08:00,85.5,63.0,29.85,SE,137,3.6,3.6,47,0.00,,---,0.00,VWS V14.01,2013-06-13 15:08:00,
2013-06-13 11:09:00,85.6,61.9,29.85,SSW,200,3.1,3.1,45,0.00,,---,0.00,VWS V14.01,2013-06-13 15:09:00,
2013-06-13 11:11:00,85.5,61.7,29.85,SSW,200,3.1,3.1,45,0.00,,---,0.00,VWS V14.01,2013-06-13 15:11:00,
2013-06-13 11:12:00,85.5,61.7,29.85,SSW,200,3.1,3.1,45,0.00,,---,0.00,VWS V14.01,2013-06-13 15:12:00,
2013-06-13 11:13:00,85.5,61.7,29.85,SSW,200,3.1,3.1,45,0.00,,---,0.00,VWS V14.01,2013-06-13 15:13:00,
2013-06-13 11:15:00,85.8,62.7,29.85,SSE,166,3.1,3.1,46,0.00,,---,0.00,VWS V14.01,2013-06-13 15:15:00,
2013-06-13 11:16:00,85.8,62.7,29.85,South,179,8.3,8.3,46,0.00,,---,0.00,VWS V14.01,2013-06-13 15:16:00,
2013-06-13 11:17:00,85.8,62.7,29.85,South,179,8.3,8.3,46,0.00,,---,0.00,VWS V14.01,2013-06-13 15:17:00,
2013-06-13 11:18:00,85.8,61.4,29.85,South,179,8.3,8.3,44,0.00,,---,0.00,VWS V14.01,2013-06-13 15:18:00,
2013-06-13 11:20:00,86.0,60.9,29.85,South,179,8.3,8.3,43,0.00,,---,0.00,VWS V14.01,2013-06-13 15:20:00,
2013-06-13 11:21:00,86.0,60.9,29.85,South,179,8.3,8.3,43,0.00,,---,0.00,VWS V14.01,2013-06-13 15:21:00,
2013-06-13 11:22:00,86.2,61.1,29.85,South,179,8.3,8.3,43,0.00,,---,0.00,VWS V14.01,2013-06-13 15:22:00,
2013-06-13 11:23:00,86.2,61.1,29.85,SE,132,7.6,8.3,43,0.00,,---,0.00,VWS V14.01,2013-06-13 15:23:00,
2013-06-13 11:25:00,86.2,61.1,29.85,South,170,4.0,4.0,43,0.00,,---,0.00,VWS V14.01,2013-06-13 15:25:00,
2013-06-13 11:26:00,86.9,62.4,29.85,South,170,4.0,4.0,44,0.00,,---,0.00,VWS V14.01,2013-06-13 15:26:00,
2013-06-13 11:27:00,86.9,62.4,29.85,South,170,4.0,4.0,44,0.00,,---,0.00,VWS V14.01,2013-06-13 15:27:00,
2013-06-13 11:28:00,86.9,62.4,29.85,SW,215,2.2,4.0,44,0.00,,---,0.00,VWS V14.01,2013-06-13 15:28:00,
2013-06-13 11:31:00,87.1,60.5,29.85,South,179,4.0,4.0,41,0.00,,---,0.00,VWS V14.01,2013-06-13 15:31:00,
2013-06-13 11:32:00,87.1,60.5,29.85,South,179,4.0,4.0,41,0.00,,---,0.00,VWS V14.01,2013-06-13 15:32:00,
2013-06-13 11:33:00,87.1,60.5,29.85,South,179,4.0,4.0,41,0.00,,---,0.00,VWS V14.01,2013-06-13 15:33:00,
2013-06-13 11:36:00,87.6,61.7,29.83,SW,218,8.7,8.7,42,0.00,,---,0.00,VWS V14.01,2013-06-13 15:36:00,
2013-06-13 11:37:00,88.0,61.3,29.83,SW,216,2.7,2.7,41,0.00,,---,0.00,VWS V14.01,2013-06-13 15:37:00,
2013-06-13 11:38:00,88.0,61.3,29.83,SW,216,2.7,2.7,41,0.00,,---,0.00,VWS V14.01,2013-06-13 15:38:00,
2013-06-13 11:41:00,88.0,61.3,29.83,SSE,167,8.7,8.7,41,0.00,,---,0.00,VWS V14.01,2013-06-13 15:41:00,
2013-06-13 11:42:00,88.0,61.3,29.83,SSE,167,8.7,8.7,41,0.00,,---,0.00,VWS V14.01,2013-06-13 15:42:00,
2013-06-13 11:43:00,88.0,61.3,29.83,SSE,167,8.7,8.7,41,0.00,,---,0.00,VWS V14.01,2013-06-13 15:43:00,
2013-06-13 11:46:00,87.8,61.2,29.83,SSE,156,5.8,5.8,41,0.00,,---,0.00,VWS V14.01,2013-06-13 15:46:00,
2013-06-13 11:47:00,87.8,60.5,29.83,SE,140,8.1,8.1,40,0.00,,---,0.00,VWS V14.01,2013-06-13 15:47:00,
2013-06-13 11:48:00,87.8,60.5,29.83,SE,140,8.1,8.1,40,0.00,,---,0.00,VWS V14.01,2013-06-13 15:48:00,
2013-06-13 11:51:00,87.8,60.5,29.83,SSE,152,5.8,5.8,40,0.00,,---,0.00,VWS V14.01,2013-06-13 15:51:00,
2013-06-13 11:52:00,87.8,59.8,29.83,SSE,152,5.8,5.8,39,0.00,,---,0.00,VWS V14.01,2013-06-13 15:52:00,
2013-06-13 11:53:00,87.6,60.3,29.83,South,180,8.1,8.1,40,0.00,,---,0.00,VWS V14.01,2013-06-13 15:53:00,
2013-06-13 11:56:00,87.6,60.3,29.83,SSE,163,5.4,5.4,40,0.00,,---,0.00,VWS V14.01,2013-06-13 15:56:00,
2013-06-13 11:57:00,87.6,60.3,29.83,SSE,150,5.8,5.8,40,0.00,,---,0.00,VWS V14.01,2013-06-13 15:57:00,
2013-06-13 11:58:00,87.6,60.3,29.83,SSE,150,5.8,5.8,40,0.00,,---,0.00,VWS V14.01,2013-06-13 15:58:00,
2013-06-13 12:01:00,88.0,60.7,29.83,SE,139,5.4,5.4,40,0.00,,---,0.00,VWS V14.01,2013-06-13 16:01:00,
2013-06-13 12:02:00,88.0,60.7,29.83,SE,139,5.4,5.4,40,0.00,,---,0.00,VWS V14.01,2013-06-13 16:02:00,
2013-06-13 12:03:00,88.0,60.7,29.83,SE,139,5.4,5.4,40,0.00,,---,0.00,VWS V14.01,2013-06-13 16:03:00,
2013-06-13 12:06:00,88.0,60.7,29.83,South,187,8.1,8.1,40,0.00,,---,0.00,VWS V14.01,2013-06-13 16:06:00,
2013-06-13 12:07:00,88.0,60.7,29.83,South,187,8.1,8.1,40,0.00,,---,0.00,VWS V14.01,2013-06-13 16:07:00,
2013-06-13 12:08:00,88.0,60.7,29.83,ESE,120,5.4,8.1,40,0.00,,---,0.00,VWS V14.01,2013-06-13 16:08:00,
2013-06-13 12:12:00,88.0,60.7,29.83,SSW,206,8.7,8.7,40,0.00,,---,0.00,VWS V14.01,2013-06-13 16:12:00,
2013-06-13 12:13:00,88.0,60.7,29.83,SSW,206,8.7,8.7,40,0.00,,---,0.00,VWS V14.01,2013-06-13 16:13:00,
2013-06-13 12:17:00,87.8,60.5,29.83,SE,141,4.9,4.9,40,0.00,,---,0.00,VWS V14.01,2013-06-13 16:17:00,
2013-06-13 12:18:00,87.8,60.5,29.83,WNW,300,5.4,5.4,40,0.00,,---,0.00,VWS V14.01,2013-06-13 16:18:00,
2013-06-13 12:22:00,88.2,61.5,29.83,SSE,152,8.7,8.7,41,0.00,,---,0.00,VWS V14.01,2013-06-13 16:22:00,
2013-06-13 12:23:00,88.2,61.5,29.83,SSE,154,5.4,8.7,41,0.00,,---,0.00,VWS V14.01,2013-06-13 16:23:00,
2013-06-13 12:27:00,87.8,61.2,29.83,SSE,151,4.0,4.0,41,0.00,,---,0.00,VWS V14.01,2013-06-13 16:27:00,
2013-06-13 12:28:00,87.8,61.2,29.83,SSE,151,4.0,4.0,41,0.00,,---,0.00,VWS V14.01,2013-06-13 16:28:00,
2013-06-13 12:29:00,88.2,61.5,29.83,SSE,151,4.0,4.0,41,0.00,,---,0.00,VWS V14.01,2013-06-13 16:29:00,
2013-06-13 12:32:00,88.3,60.3,29.83,SSW,198,2.7,4.9,39,0.00,,---,0.00,VWS V14.01,2013-06-13 16:32:00,
2013-06-13 12:33:00,88.3,60.3,29.83,SSE,162,4.0,4.0,39,0.00,,---,0.00,VWS V14.01,2013-06-13 16:33:00,
2013-06-13 12:34:00,88.3,60.3,29.83,SSE,162,4.0,4.0,39,0.00,,---,0.00,VWS V14.01,2013-06-13 16:34:00,
2013-06-13 12:37:00,88.3,60.3,29.80,SSE,149,2.2,2.2,39,0.00,,---,0.00,VWS V14.01,2013-06-13 16:37:00,
2013-06-13 12:38:00,88.3,60.3,29.80,SSE,149,2.2,2.2,39,0.00,,---,0.00,VWS V14.01,2013-06-13 16:38:00,
2013-06-13 12:39:00,88.3,60.3,29.80,SSE,149,2.2,2.2,39,0.00,,---,0.00,VWS V14.01,2013-06-13 16:39:00,
2013-06-13 12:42:00,88.3,60.3,29.80,WNW,295,3.6,3.6,39,0.00,,---,0.00,VWS V14.01,2013-06-13 16:42:00,
2013-06-13 12:43:00,88.3,60.3,29.80,WNW,295,3.6,3.6,39,0.00,,---,0.00,VWS V14.01,2013-06-13 16:43:00,
2013-06-13 12:44:00,88.3,60.3,29.80,WNW,295,3.6,3.6,39,0.00,,---,0.00,VWS V14.01,2013-06-13 16:44:00,
2013-06-13 12:47:00,87.4,60.9,29.80,South,176,8.1,8.1,41,0.00,,---,0.00,VWS V14.01,2013-06-13 16:47:00,
2013-06-13 12:48:00,87.4,60.9,29.80,South,180,7.6,8.1,41,0.00,,---,0.00,VWS V14.01,2013-06-13 16:48:00,
2013-06-13 12:49:00,87.4,60.9,29.80,South,180,7.6,7.6,41,0.00,,---,0.00,VWS V14.01,2013-06-13 16:49:00,
2013-06-13 12:52:00,87.4,60.9,29.80,SSE,150,3.1,3.1,41,0.00,,---,0.00,VWS V14.01,2013-06-13 16:52:00,
2013-06-13 12:53:00,87.8,60.5,29.80,ESE,117,5.8,5.8,40,0.00,,---,0.00,VWS V14.01,2013-06-13 16:53:00,
2013-06-13 12:54:00,87.8,60.5,29.80,ESE,114,12.8,12.8,40,0.00,,---,0.00,VWS V14.01,2013-06-13 16:54:00,
2013-06-13 12:57:00,88.0,60.7,29.80,SSE,163,3.6,3.6,40,0.00,,---,0.00,VWS V14.01,2013-06-13 16:57:00,
2013-06-13 12:58:00,88.0,60.7,29.80,West,273,6.3,6.3,40,0.00,,---,0.00,VWS V14.01,2013-06-13 16:58:00,
2013-06-13 12:59:00,88.0,60.7,29.80,West,273,6.3,6.3,40,0.00,,---,0.00,VWS V14.01,2013-06-13 16:59:00,
2013-06-13 13:02:00,88.5,60.4,29.80,SW,221,5.4,5.4,39,0.00,,---,0.00,VWS V14.01,2013-06-13 17:02:00,
2013-06-13 13:03:00,88.5,60.4,29.80,SW,221,5.4,5.4,39,0.00,,---,0.00,VWS V14.01,2013-06-13 17:03:00,
2013-06-13 13:04:00,88.5,60.4,29.80,SW,221,5.4,5.4,39,0.00,,---,0.00,VWS V14.01,2013-06-13 17:04:00,
2013-06-13 13:07:00,88.3,60.3,29.80,SSE,157,4.0,4.0,39,0.00,,---,0.00,VWS V14.01,2013-06-13 17:07:00,
2013-06-13 13:08:00,88.3,60.3,29.80,South,170,4.0,4.0,39,0.00,,---,0.00,VWS V14.01,2013-06-13 17:08:00,
2013-06-13 13:09:00,88.3,60.3,29.80,SSE,168,8.3,8.3,39,0.00,,---,0.00,VWS V14.01,2013-06-13 17:09:00,
2013-06-13 13:13:00,88.5,61.1,29.80,SE,129,5.8,5.8,40,0.00,,---,0.00,VWS V14.01,2013-06-13 17:13:00,
2013-06-13 13:14:00,88.5,61.1,29.80,South,180,8.1,8.1,40,0.00,,---,0.00,VWS V14.01,2013-06-13 17:14:00,
2013-06-13 13:18:00,88.5,61.1,29.80,SSW,203,5.8,5.8,40,0.00,,---,0.00,VWS V14.01,2013-06-13 17:18:00,
2013-06-13 13:19:00,89.6,59.9,29.80,SSW,203,5.8,5.8,37,0.00,,---,0.00,VWS V14.01,2013-06-13 17:19:00,
2013-06-13 13:23:00,89.6,59.9,29.80,SSW,203,2.7,2.7,37,0.00,,---,0.00,VWS V14.01,2013-06-13 17:23:00,
2013-06-13 13:24:00,89.6,59.9,29.80,WSW,247,2.7,2.7,37,0.00,,---,0.00,VWS V14.01,2013-06-13 17:24:00,
2013-06-13 13:28:00,89.4,59.7,29.80,SW,226,5.8,5.8,37,0.00,,---,0.00,VWS V14.01,2013-06-13 17:28:00,
2013-06-13 13:29:00,89.4,59.7,29.80,SE,124,3.1,5.8,37,0.00,,---,0.00,VWS V14.01,2013-06-13 17:29:00,
2013-06-13 13:30:00,89.4,59.7,29.80,SE,124,3.1,3.1,37,0.00,,---,0.00,VWS V14.01,2013-06-13 17:30:00,
2013-06-13 13:33:00,89.1,59.4,29.80,South,191,3.6,3.6,37,0.00,,---,0.00,VWS V14.01,2013-06-13 17:33:00,
2013-06-13 13:34:00,89.1,59.4,29.80,South,191,3.6,3.6,37,0.00,,---,0.00,VWS V14.01,2013-06-13 17:34:00,
2013-06-13 13:35:00,89.1,59.4,29.77,South,191,3.6,3.6,37,0.00,,---,0.00,VWS V14.01,2013-06-13 17:35:00,
2013-06-13 13:38:00,88.5,59.0,29.77,WSW,248,12.3,12.3,37,0.00,,---,0.00,VWS V14.01,2013-06-13 17:38:00,
2013-06-13 13:39:00,88.5,59.0,29.77,SSE,158,7.6,12.3,37,0.00,,---,0.00,VWS V14.01,2013-06-13 17:39:00,
2013-06-13 13:40:00,88.5,59.0,29.77,SSE,158,7.6,7.6,37,0.00,,---,0.00,VWS V14.01,2013-06-13 17:40:00,
2013-06-13 13:43:00,88.5,59.7,29.77,West,278,6.3,6.3,38,0.00,,---,0.00,VWS V14.01,2013-06-13 17:43:00,
2013-06-13 13:44:00,88.5,59.7,29.77,West,278,6.3,6.3,38,0.00,,---,0.00,VWS V14.01,2013-06-13 17:44:00,
2013-06-13 13:45:00,88.5,59.7,29.77,West,278,6.3,6.3,38,0.00,,---,0.00,VWS V14.01,2013-06-13 17:45:00,
2013-06-13 13:48:00,88.7,59.1,29.77,SW,218,3.1,3.1,37,0.00,,---,0.00,VWS V14.01,2013-06-13 17:48:00,
2013-06-13 13:49:00,88.7,59.1,29.77,SW,218,3.1,3.1,37,0.00,,---,0.00,VWS V14.01,2013-06-13 17:49:00,
2013-06-13 13:50:00,88.7,59.1,29.77,SW,233,3.6,6.3,37,0.00,,---,0.00,VWS V14.01,2013-06-13 17:50:00,
2013-06-13 13:53:00,88.3,59.5,29.77,SW,216,4.0,4.0,38,0.00,,---,0.00,VWS V14.01,2013-06-13 17:53:00,
2013-06-13 13:54:00,88.3,59.5,29.77,SSE,162,8.3,8.3,38,0.00,,---,0.00,VWS V14.01,2013-06-13 17:54:00,
2013-06-13 13:55:00,88.3,59.5,29.77,SSE,162,8.3,8.3,38,0.00,,---,0.00,VWS V14.01,2013-06-13 17:55:00,
2013-06-13 13:58:00,88.5,59.0,29.77,SW,224,4.5,4.5,37,0.00,,---,0.00,VWS V14.01,2013-06-13 17:58:00,
2013-06-13 13:59:00,88.5,59.0,29.77,SW,224,4.5,4.5,37,0.00,,---,0.00,VWS V14.01,2013-06-13 17:59:00,
2013-06-13 14:00:00,88.5,59.0,29.77,North,0,4.0,4.9,37,0.00,,---,0.00,VWS V14.01,2013-06-13 18:00:00,
2013-06-13 14:03:00,88.7,59.1,29.77,North,0,4.0,4.0,37,0.00,,---,0.00,VWS V14.01,2013-06-13 18:03:00,
2013-06-13 14:04:00,88.7,59.1,29.77,South,190,3.1,4.0,37,0.00,,---,0.00,VWS V14.01,2013-06-13 18:04:00,
2013-06-13 14:05:00,88.7,59.1,29.77,East,89,3.6,3.6,37,0.00,,---,0.00,VWS V14.01,2013-06-13 18:05:00,
2013-06-13 14:08:00,89.2,58.0,29.77,SW,223,3.1,3.1,35,0.00,,---,0.00,VWS V14.01,2013-06-13 18:08:00,
2013-06-13 14:09:00,89.2,58.0,29.77,SW,223,3.1,3.1,35,0.00,,---,0.00,VWS V14.01,2013-06-13 18:09:00,
2013-06-13 14:10:00,89.2,58.0,29.77,SW,223,3.1,3.1,35,0.00,,---,0.00,VWS V14.01,2013-06-13 18:10:00,
2013-06-13 14:13:00,89.6,57.5,29.77,SE,129,8.3,8.3,34,0.00,,---,0.00,VWS V14.01,2013-06-13 18:13:00,
2013-06-13 14:14:00,89.6,57.5,29.77,SE,129,8.3,8.3,34,0.00,,---,0.00,VWS V14.01,2013-06-13 18:14:00,
2013-06-13 14:15:00,89.6,57.5,29.77,SSW,197,2.7,8.3,34,0.00,,---,0.00,VWS V14.01,2013-06-13 18:15:00,
2013-06-13 14:19:00,89.6,57.5,29.77,SSE,166,8.3,8.3,34,0.00,,---,0.00,VWS V14.01,2013-06-13 18:19:00,
2013-06-13 14:20:00,89.8,56.9,29.77,SSE,166,8.3,8.3,33,0.00,,---,0.00,VWS V14.01,2013-06-13 18:20:00,
2013-06-13 14:24:00,89.8,56.9,29.77,South,181,8.1,8.1,33,0.00,,---,0.00,VWS V14.01,2013-06-13 18:24:00,
2013-06-13 14:25:00,89.8,56.9,29.77,South,187,11.0,11.0,33,0.00,,---,0.00,VWS V14.01,2013-06-13 18:25:00,
2013-06-13 14:29:00,90.3,56.5,29.77,SW,221,5.4,6.3,32,0.00,,---,0.00,VWS V14.01,2013-06-13 18:29:00,
2013-06-13 14:30:00,90.3,56.5,29.77,SW,221,5.4,5.4,32,0.00,,---,0.00,VWS V14.01,2013-06-13 18:30:00,
2013-06-13 14:34:00,90.3,56.5,29.77,SSW,206,2.7,2.7,32,0.00,,---,0.00,VWS V14.01,2013-06-13 18:34:00,
2013-06-13 14:35:00,90.3,56.5,29.77,SSW,206,2.7,2.7,32,0.00,,---,0.00,VWS V14.01,2013-06-13 18:35:00,
2013-06-13 14:39:00,90.1,56.3,29.77,South,190,12.8,12.8,32,0.00,,---,0.00,VWS V14.01,2013-06-13 18:39:00,
2013-06-13 14:40:00,90.1,56.3,29.77,South,184,6.3,12.8,32,0.00,,---,0.00,VWS V14.01,2013-06-13 18:40:00,
2013-06-13 14:44:00,90.1,56.3,29.77,SE,131,8.1,8.1,32,0.00,,---,0.00,VWS V14.01,2013-06-13 18:44:00,
2013-06-13 14:45:00,90.0,56.2,29.77,SE,131,8.1,8.1,32,0.00,,---,0.00,VWS V14.01,2013-06-13 18:45:00,
2013-06-13 14:49:00,90.1,56.3,29.77,SSE,160,6.7,6.7,32,0.00,,---,0.00,VWS V14.01,2013-06-13 18:49:00,
2013-06-13 14:50:00,90.1,56.3,29.74,SSE,160,6.7,6.7,32,0.00,,---,0.00,VWS V14.01,2013-06-13 18:50:00,
2013-06-13 14:54:00,89.6,56.7,29.74,South,172,8.3,8.3,33,0.00,,---,0.00,VWS V14.01,2013-06-13 18:54:00,
2013-06-13 14:55:00,89.6,56.7,29.74,South,172,8.3,8.3,33,0.00,,---,0.00,VWS V14.01,2013-06-13 18:55:00,
2013-06-13 14:59:00,89.6,55.9,29.74,WSW,248,8.1,8.1,32,0.00,,---,0.00,VWS V14.01,2013-06-13 18:59:00,
2013-06-13 15:00:00,89.6,55.9,29.74,NW,315,3.6,8.1,32,0.00,,---,0.00,VWS V14.01,2013-06-13 19:00:00,
2013-06-13 15:04:00,89.4,56.6,29.74,North,353,6.3,6.3,33,0.00,,---,0.00,VWS V14.01,2013-06-13 19:04:00,
2013-06-13 15:05:00,89.4,56.6,29.74,North,353,6.3,6.3,33,0.00,,---,0.00,VWS V14.01,2013-06-13 19:05:00,
2013-06-13 15:06:00,89.4,56.6,29.74,North,353,6.3,6.3,33,0.00,,---,0.00,VWS V14.01,2013-06-13 19:06:00,
2013-06-13 15:09:00,89.2,57.2,29.74,SE,141,5.4,5.4,34,0.00,,---,0.00,VWS V14.01,2013-06-13 19:09:00,
2013-06-13 15:10:00,89.2,57.2,29.74,South,185,5.4,5.4,34,0.00,,---,0.00,VWS V14.01,2013-06-13 19:10:00,
2013-06-13 15:11:00,89.2,57.2,29.74,SE,145,5.4,5.4,34,0.00,,---,0.00,VWS V14.01,2013-06-13 19:11:00,
2013-06-13 15:14:00,89.2,57.2,29.74,South,171,7.2,7.2,34,0.00,,---,0.00,VWS V14.01,2013-06-13 19:14:00,
2013-06-13 15:15:00,89.2,57.2,29.74,South,171,7.2,7.2,34,0.00,,---,0.00,VWS V14.01,2013-06-13 19:15:00,
2013-06-13 15:16:00,89.2,57.2,29.74,South,170,10.1,10.1,34,0.00,,---,0.00,VWS V14.01,2013-06-13 19:16:00,
2013-06-13 15:20:00,89.2,57.2,29.74,ESE,112,8.3,8.3,34,0.00,,---,0.00,VWS V14.01,2013-06-13 19:20:00,
2013-06-13 15:21:00,89.1,56.2,29.74,ESE,105,8.1,8.3,33,0.00,,---,0.00,VWS V14.01,2013-06-13 19:21:00,
2013-06-13 15:25:00,88.9,56.1,29.74,South,177,2.7,5.4,33,0.00,,---,0.00,VWS V14.01,2013-06-13 19:25:00,
2013-06-13 15:26:00,88.9,56.1,29.74,South,177,2.7,2.7,33,0.00,,---,0.00,VWS V14.01,2013-06-13 19:26:00,
2013-06-13 15:30:00,88.9,56.1,29.74,SSE,149,11.0,11.0,33,0.00,,---,0.00,VWS V14.01,2013-06-13 19:30:00,
2013-06-13 15:31:00,88.7,55.9,29.74,South,181,8.7,11.0,33,0.00,,---,0.00,VWS V14.01,2013-06-13 19:31:00,
2013-06-13 15:35:00,89.1,57.9,29.74,WNW,282,7.6,12.3,35,0.00,,---,0.00,VWS V14.01,2013-06-13 19:35:00,
2013-06-13 15:36:00,89.1,57.9,29.74,WNW,282,7.6,7.6,35,0.00,,---,0.00,VWS V14.01,2013-06-13 19:36:00,
2013-06-13 15:40:00,89.1,57.9,29.74,WSW,258,7.6,7.6,35,0.00,,---,0.00,VWS V14.01,2013-06-13 19:40:00,
2013-06-13 15:41:00,89.1,57.9,29.74,South,183,8.3,8.3,35,0.00,,---,0.00,VWS V14.01,2013-06-13 19:41:00,
2013-06-13 15:45:00,88.9,56.1,29.74,SE,143,5.4,5.4,33,0.00,,---,0.00,VWS V14.01,2013-06-13 19:45:00,
2013-06-13 15:46:00,88.9,56.1,29.74,SE,143,5.4,5.4,33,0.00,,---,0.00,VWS V14.01,2013-06-13 19:46:00,
2013-06-13 15:50:00,88.9,56.1,29.74,WSW,257,2.7,2.7,33,0.00,,---,0.00,VWS V14.01,2013-06-13 19:50:00,
2013-06-13 15:51:00,88.9,56.1,29.74,WSW,257,2.7,2.7,33,0.00,,---,0.00,VWS V14.01,2013-06-13 19:51:00,
2013-06-13 15:55:00,88.9,56.9,29.74,South,189,9.6,9.6,34,0.00,,---,0.00,VWS V14.01,2013-06-13 19:55:00,
2013-06-13 15:56:00,88.9,56.9,29.74,SSW,196,11.0,11.0,34,0.00,,---,0.00,VWS V14.01,2013-06-13 19:56:00,
2013-06-13 16:00:00,88.9,56.9,29.74,SSW,199,4.5,4.5,34,0.00,,---,0.00,VWS V14.01,2013-06-13 20:00:00,
2013-06-13 16:01:00,88.9,56.9,29.74,SSW,199,4.5,4.5,34,0.00,,---,0.00,VWS V14.01,2013-06-13 20:01:00,
2013-06-13 16:05:00,88.5,57.4,29.71,SSW,203,6.3,6.3,35,0.00,,---,0.00,VWS V14.01,2013-06-13 20:05:00,
2013-06-13 16:06:00,88.5,57.4,29.71,SSW,203,6.3,6.3,35,0.00,,---,0.00,VWS V14.01,2013-06-13 20:06:00,
2013-06-13 16:10:00,88.2,57.1,29.71,SSW,209,7.6,7.6,35,0.00,,---,0.00,VWS V14.01,2013-06-13 20:10:00,
2013-06-13 16:11:00,88.2,57.9,29.71,SSW,209,7.6,7.6,36,0.00,,---,0.00,VWS V14.01,2013-06-13 20:11:00,
2013-06-13 16:15:00,87.8,57.5,29.71,SSE,168,3.1,3.1,36,0.00,,---,0.00,VWS V14.01,2013-06-13 20:15:00,
2013-06-13 16:16:00,87.8,57.5,29.71,ESE,118,4.0,4.0,36,0.00,,---,0.00,VWS V14.01,2013-06-13 20:16:00,
2013-06-13 16:20:00,87.6,58.9,29.71,South,173,8.7,8.7,38,0.00,,---,0.00,VWS V14.01,2013-06-13 20:20:00,
2013-06-13 16:21:00,87.6,58.2,29.71,South,173,8.7,8.7,37,0.00,,---,0.00,VWS V14.01,2013-06-13 20:21:00,
2013-06-13 16:25:00,87.6,58.2,29.71,South,179,4.5,4.5,37,0.00,,---,0.00,VWS V14.01,2013-06-13 20:25:00,
2013-06-13 16:26:00,87.6,58.2,29.71,South,179,4.5,4.5,37,0.00,,---,0.00,VWS V14.01,2013-06-13 20:26:00,
2013-06-13 16:30:00,87.6,58.2,29.71,West,269,8.1,8.1,37,0.00,,---,0.00,VWS V14.01,2013-06-13 20:30:00,
2013-06-13 16:31:00,87.6,58.2,29.71,North,4,10.5,10.5,37,0.00,,---,0.00,VWS V14.01,2013-06-13 20:31:00,
2013-06-13 16:32:00,87.1,57.7,29.71,North,4,10.5,10.5,37,0.00,,---,0.00,VWS V14.01,2013-06-13 20:32:00,
2013-06-13 16:35:00,87.1,57.7,29.71,SW,218,5.4,5.4,37,0.00,,---,0.00,VWS V14.01,2013-06-13 20:35:00,
2013-06-13 16:36:00,87.1,57.7,29.71,SW,218,5.4,5.4,37,0.00,,---,0.00,VWS V14.01,2013-06-13 20:36:00,
2013-06-13 16:37:00,87.1,57.7,29.71,SW,218,5.4,5.4,37,0.00,,---,0.00,VWS V14.01,2013-06-13 20:37:00,
2013-06-13 16:40:00,87.1,57.7,29.71,SSE,154,9.2,9.2,37,0.00,,---,0.00,VWS V14.01,2013-06-13 20:40:00,
2013-06-13 16:41:00,87.1,57.7,29.71,SSE,161,8.1,8.1,37,0.00,,---,0.00,VWS V14.01,2013-06-13 20:41:00,
2013-06-13 16:42:00,87.1,57.7,29.71,SSE,161,8.1,8.1,37,0.00,,---,0.00,VWS V14.01,2013-06-13 20:42:00,
2013-06-13 16:45:00,87.3,57.8,29.71,SSW,197,7.6,7.6,37,0.00,,---,0.00,VWS V14.01,2013-06-13 20:45:00,
2013-06-13 16:46:00,87.3,57.8,29.71,SSW,197,7.6,7.6,37,0.00,,---,0.00,VWS V14.01,2013-06-13 20:46:00,
2013-06-13 16:47:00,87.3,57.8,29.71,SE,139,12.8,12.8,37,0.00,,---,0.00,VWS V14.01,2013-06-13 20:47:00,
2013-06-13 16:50:00,87.3,57.1,29.71,SW,221,9.6,9.6,36,0.00,,---,0.00,VWS V14.01,2013-06-13 20:50:00,
2013-06-13 16:51:00,87.3,57.1,29.71,South,171,5.4,5.4,36,0.00,,---,0.00,VWS V14.01,2013-06-13 20:51:00,
2013-06-13 16:52:00,87.1,57.7,29.71,SE,142,8.1,8.1,37,0.00,,---,0.00,VWS V14.01,2013-06-13 20:52:00,
2013-06-13 16:55:00,87.1,57.7,29.71,SW,230,4.9,7.6,37,0.00,,---,0.00,VWS V14.01,2013-06-13 20:55:00,
2013-06-13 16:56:00,87.1,57.7,29.71,SW,230,4.9,4.9,37,0.00,,---,0.00,VWS V14.01,2013-06-13 20:56:00,
2013-06-13 16:57:00,86.9,58.3,29.71,SW,230,4.9,4.9,38,0.00,,---,0.00,VWS V14.01,2013-06-13 20:57:00,
2013-06-13 17:01:00,86.9,59.0,29.71,SSE,163,4.9,4.9,39,0.00,,---,0.00,VWS V14.01,2013-06-13 21:01:00,
2013-06-13 17:02:00,86.9,59.0,29.71,South,173,5.4,5.4,39,0.00,,---,0.00,VWS V14.01,2013-06-13 21:02:00,
2013-06-13 17:06:00,87.1,58.4,29.71,South,182,4.0,4.0,38,0.00,,---,0.00,VWS V14.01,2013-06-13 21:06:00,
2013-06-13 17:07:00,87.1,58.4,29.71,South,182,4.0,4.0,38,0.00,,---,0.00,VWS V14.01,2013-06-13 21:07:00,
2013-06-13 17:11:00,86.9,58.3,29.71,NNW,339,4.0,8.1,38,0.00,,---,0.00,VWS V14.01,2013-06-13 21:11:00,
2013-06-13 17:12:00,86.7,58.1,29.71,NNW,339,4.0,4.0,38,0.00,,---,0.00,VWS V14.01,2013-06-13 21:12:00,
2013-06-13 17:16:00,86.5,58.7,29.71,SE,129,15.4,15.4,39,0.00,,---,0.00,VWS V14.01,2013-06-13 21:16:00,
2013-06-13 17:17:00,86.5,58.7,29.71,North,349,8.3,15.4,39,0.00,,---,0.00,VWS V14.01,2013-06-13 21:17:00,
2013-06-13 17:21:00,86.5,58.7,29.71,SW,227,7.2,7.2,39,0.00,,---,0.00,VWS V14.01,2013-06-13 21:21:00,
2013-06-13 17:22:00,86.5,58.7,29.71,SSE,148,7.6,7.6,39,0.00,,---,0.00,VWS V14.01,2013-06-13 21:22:00,
2013-06-13 17:23:00,86.5,58.7,29.71,SSE,168,4.5,7.6,39,0.00,,---,0.00,VWS V14.01,2013-06-13 21:23:00,
2013-06-13 17:26:00,86.5,58.7,29.71,SSW,202,3.1,3.1,39,0.00,,---,0.00,VWS V14.01,2013-06-13 21:26:00,
2013-06-13 17:27:00,86.5,58.7,29.71,WSW,246,4.9,4.9,39,0.00,,---,0.00,VWS V14.01,2013-06-13 21:27:00,
2013-06-13 17:31:00,86.5,58.7,29.71,SSW,203,5.4,5.4,39,0.00,,---,0.00,VWS V14.01,2013-06-13 21:31:00,
2013-06-13 17:32:00,86.5,58.7,29.71,West,263,7.6,7.6,39,0.00,,---,0.00,VWS V14.01,2013-06-13 21:32:00,
2013-06-13 17:33:00,86.5,59.4,29.71,West,271,7.2,7.6,40,0.00,,---,0.00,VWS V14.01,2013-06-13 21:33:00,
2013-06-13 17:36:00,86.5,59.4,29.68,SSW,210,10.5,10.5,40,0.00,,---,0.00,VWS V14.01,2013-06-13 21:36:00,
2013-06-13 17:37:00,86.5,59.4,29.68,SSW,210,10.5,10.5,40,0.00,,---,0.00,VWS V14.01,2013-06-13 21:37:00,
2013-06-13 17:38:00,86.4,59.2,29.68,SSW,210,10.5,10.5,40,0.00,,---,0.00,VWS V14.01,2013-06-13 21:38:00,
2013-06-13 17:41:00,86.2,59.0,29.68,South,174,5.8,6.3,40,0.00,,---,0.00,VWS V14.01,2013-06-13 21:41:00,
2013-06-13 17:42:00,86.0,58.9,29.68,South,174,5.8,5.8,40,0.00,,---,0.00,VWS V14.01,2013-06-13 21:42:00,
2013-06-13 17:43:00,86.0,58.9,29.68,East,86,3.1,5.8,40,0.00,,---,0.00,VWS V14.01,2013-06-13 21:43:00,
2013-06-13 17:46:00,86.0,58.9,29.68,SSW,209,8.7,8.7,40,0.00,,---,0.00,VWS V14.01,2013-06-13 21:46:00,
2013-06-13 17:47:00,86.0,58.9,29.68,SW,223,3.6,3.6,40,0.00,,---,0.00,VWS V14.01,2013-06-13 21:47:00,
2013-06-13 17:48:00,86.0,58.9,29.68,WSW,250,4.0,4.0,40,0.00,,---,0.00,VWS V14.01,2013-06-13 21:48:00,
2013-06-13 17:51:00,86.0,58.9,29.68,South,171,11.0,11.0,40,0.00,,---,0.00,VWS V14.01,2013-06-13 21:51:00,
2013-06-13 17:52:00,86.0,58.9,29.68,South,171,11.0,11.0,40,0.00,,---,0.00,VWS V14.01,2013-06-13 21:52:00,
2013-06-13 17:53:00,86.0,58.9,29.68,South,171,11.0,11.0,40,0.00,,---,0.00,VWS V14.01,2013-06-13 21:53:00,
2013-06-13 17:56:00,86.0,58.9,29.68,SW,229,8.3,8.3,40,0.00,,---,0.00,VWS V14.01,2013-06-13 21:56:00,
2013-06-13 17:57:00,86.0,59.6,29.68,SW,229,8.3,8.3,41,0.00,,---,0.00,VWS V14.01,2013-06-13 21:57:00,
2013-06-13 17:58:00,86.0,59.6,29.68,SW,229,8.3,8.3,41,0.00,,---,0.00,VWS V14.01,2013-06-13 21:58:00,
2013-06-13 18:01:00,86.0,59.6,29.68,SW,225,4.0,4.0,41,0.00,,---,0.00,VWS V14.01,2013-06-13 22:01:00,
2013-06-13 18:03:00,85.8,59.4,29.68,ESE,112,7.6,7.6,41,0.00,,---,0.00,VWS V14.01,2013-06-13 22:03:00,
2013-06-13 18:06:00,85.8,59.4,29.68,SE,145,6.3,6.3,41,0.00,,---,0.00,VWS V14.01,2013-06-13 22:06:00,
2013-06-13 18:08:00,85.8,59.4,29.68,SW,218,10.5,10.5,41,0.00,,---,0.00,VWS V14.01,2013-06-13 22:08:00,
2013-06-13 18:12:00,85.6,59.3,29.68,West,277,5.8,5.8,41,0.00,,---,0.00,VWS V14.01,2013-06-13 22:12:00,
2013-06-13 18:13:00,85.6,59.3,29.68,West,277,5.8,5.8,41,0.00,,---,0.00,VWS V14.01,2013-06-13 22:13:00,
2013-06-13 18:17:00,85.6,59.3,29.68,SSE,153,8.1,9.6,41,0.00,,---,0.00,VWS V14.01,2013-06-13 22:17:00,
2013-06-13 18:18:00,85.6,59.3,29.68,SSE,160,8.3,8.3,41,0.00,,---,0.00,VWS V14.01,2013-06-13 22:18:00,
2013-06-13 18:22:00,84.9,60.0,29.68,South,183,4.9,11.0,43,0.00,,---,0.00,VWS V14.01,2013-06-13 22:22:00,
2013-06-13 18:23:00,84.9,60.0,29.68,West,259,5.4,5.4,43,0.00,,---,0.00,VWS V14.01,2013-06-13 22:23:00,
2013-06-13 18:24:00,84.9,60.0,29.68,South,180,9.6,9.6,43,0.00,,---,0.00,VWS V14.01,2013-06-13 22:24:00,
2013-06-13 18:27:00,84.9,60.0,29.68,South,185,5.8,9.6,43,0.00,,---,0.00,VWS V14.01,2013-06-13 22:27:00,
2013-06-13 18:28:00,84.7,59.8,29.68,South,185,5.8,5.8,43,0.00,,---,0.00,VWS V14.01,2013-06-13 22:28:00,
2013-06-13 18:29:00,84.7,59.8,29.68,SE,129,4.0,5.8,43,0.00,,---,0.00,VWS V14.01,2013-06-13 22:29:00,
2013-06-13 18:32:00,84.7,59.8,29.68,WSW,255,5.8,5.8,43,0.00,,---,0.00,VWS V14.01,2013-06-13 22:32:00,
2013-06-13 18:33:00,84.7,59.8,29.68,SSE,167,4.0,5.8,43,0.00,,---,0.00,VWS V14.01,2013-06-13 22:33:00,
2013-06-13 18:34:00,84.6,59.6,29.68,West,275,3.1,4.0,43,0.00,,---,0.00,VWS V14.01,2013-06-13 22:34:00,
2013-06-13 18:37:00,84.6,59.6,29.68,West,271,10.5,10.5,43,0.00,,---,0.00,VWS V14.01,2013-06-13 22:37:00,
2013-06-13 18:38:00,84.6,59.6,29.68,West,271,10.5,10.5,43,0.00,,---,0.00,VWS V14.01,2013-06-13 22:38:00,
2013-06-13 18:39:00,84.4,59.5,29.68,South,173,2.7,10.5,43,0.00,,---,0.00,VWS V14.01,2013-06-13 22:39:00,
2013-06-13 18:42:00,84.4,59.5,29.68,SSW,212,3.6,3.6,43,0.00,,---,0.00,VWS V14.01,2013-06-13 22:42:00,
2013-06-13 18:43:00,84.4,59.5,29.68,NNW,327,5.8,5.8,43,0.00,,---,0.00,VWS V14.01,2013-06-13 22:43:00,
2013-06-13 18:44:00,84.4,59.5,29.68,SSE,167,5.4,5.8,43,0.00,,---,0.00,VWS V14.01,2013-06-13 22:44:00,
2013-06-13 18:47:00,84.0,60.4,29.68,South,169,7.6,7.6,45,0.00,,---,0.00,VWS V14.01,2013-06-13 22:47:00,
2013-06-13 18:48:00,84.0,60.4,29.68,South,169,7.6,7.6,45,0.00,,---,0.00,VWS V14.01,2013-06-13 22:48:00,
2013-06-13 18:49:00,84.0,60.4,29.71,South,169,7.6,7.6,45,0.00,,---,0.00,VWS V14.01,2013-06-13 22:49:00,
2013-06-13 18:52:00,84.0,60.4,29.71,SSW,205,8.3,8.3,45,0.00,,---,0.00,VWS V14.01,2013-06-13 22:52:00,
2013-06-13 18:53:00,84.0,60.4,29.71,SSW,205,8.3,8.3,45,0.00,,---,0.00,VWS V14.01,2013-06-13 22:53:00,
2013-06-13 18:54:00,84.0,59.8,29.71,ENE,61,3.6,8.3,44,0.00,,---,0.00,VWS V14.01,2013-06-13 22:54:00,
2013-06-13 18:57:00,83.8,60.2,29.71,NW,307,3.6,4.0,45,0.00,,---,0.00,VWS V14.01,2013-06-13 22:57:00,
2013-06-13 18:58:00,83.8,60.2,29.71,South,187,7.6,7.6,45,0.00,,---,0.00,VWS V14.01,2013-06-13 22:58:00,
2013-06-13 18:59:00,83.8,60.2,29.71,South,187,7.6,7.6,45,0.00,,---,0.00,VWS V14.01,2013-06-13 22:59:00,
2013-06-13 19:03:00,83.8,60.2,29.71,SSE,148,3.6,3.6,45,0.00,,---,0.00,VWS V14.01,2013-06-13 23:03:00,
2013-06-13 19:04:00,83.8,60.2,29.71,SSE,149,3.1,3.1,45,0.00,,---,0.00,VWS V14.01,2013-06-13 23:04:00,
2013-06-13 19:08:00,83.8,60.2,29.71,WSW,240,10.5,10.5,45,0.00,,---,0.00,VWS V14.01,2013-06-13 23:08:00,
2013-06-13 19:09:00,83.8,60.2,29.71,SE,145,3.6,10.5,45,0.00,,---,0.00,VWS V14.01,2013-06-13 23:09:00,
2013-06-13 19:13:00,83.5,60.5,29.71,SW,224,5.4,5.4,46,0.00,,---,0.00,VWS V14.01,2013-06-13 23:13:00,
2013-06-13 19:14:00,83.5,60.5,29.71,West,276,3.1,3.1,46,0.00,,---,0.00,VWS V14.01,2013-06-13 23:14:00,
2013-06-13 19:18:00,83.3,60.4,29.71,SW,218,5.8,8.3,46,0.00,,---,0.00,VWS V14.01,2013-06-13 23:18:00,
2013-06-13 19:19:00,83.3,60.4,29.71,SW,233,6.3,6.3,46,0.00,,---,0.00,VWS V14.01,2013-06-13 23:19:00,
2013-06-13 19:23:00,83.3,60.4,29.71,South,189,3.1,4.9,46,0.00,,---,0.00,VWS V14.01,2013-06-13 23:23:00,
2013-06-13 19:24:00,83.3,60.4,29.71,South,189,3.1,3.1,46,0.00,,---,0.00,VWS V14.01,2013-06-13 23:24:00,
2013-06-13 19:28:00,83.1,60.8,29.71,SSW,197,8.7,8.7,47,0.00,,---,0.00,VWS V14.01,2013-06-13 23:28:00,
2013-06-13 19:29:00,83.1,60.8,29.71,SSW,197,8.7,8.7,47,0.00,,---,0.00,VWS V14.01,2013-06-13 23:29:00,
2013-06-13 19:33:00,82.9,61.2,29.71,SSW,207,2.7,4.0,48,0.00,,---,0.00,VWS V14.01,2013-06-13 23:33:00,
2013-06-13 19:34:00,82.9,61.2,29.71,SSW,207,2.7,2.7,48,0.00,,---,0.00,VWS V14.01,2013-06-13 23:34:00,
2013-06-13 19:35:00,82.9,61.2,29.71,SSE,162,8.7,8.7,48,0.00,,---,0.00,VWS V14.01,2013-06-13 23:35:00,
2013-06-13 19:38:00,82.9,61.2,29.71,SSW,207,7.6,7.6,48,0.00,,---,0.00,VWS V14.01,2013-06-13 23:38:00,
2013-06-13 19:39:00,82.8,61.1,29.71,SSW,207,7.6,7.6,48,0.00,,---,0.00,VWS V14.01,2013-06-13 23:39:00,
2013-06-13 19:40:00,82.8,61.1,29.71,SW,217,5.4,7.6,48,0.00,,---,0.00,VWS V14.01,2013-06-13 23:40:00,
2013-06-13 19:43:00,82.8,61.1,29.71,West,271,3.1,4.0,48,0.00,,---,0.00,VWS V14.01,2013-06-13 23:43:00,
2013-06-13 19:44:00,82.8,61.1,29.71,West,271,3.1,3.1,48,0.00,,---,0.00,VWS V14.01,2013-06-13 23:44:00,
2013-06-13 19:45:00,82.8,61.1,29.71,West,271,3.1,3.1,48,0.00,,---,0.00,VWS V14.01,2013-06-13 23:45:00,
2013-06-13 19:48:00,82.6,61.5,29.71,SW,230,6.3,6.3,49,0.00,,---,0.00,VWS V14.01,2013-06-13 23:48:00,
2013-06-13 19:49:00,82.6,61.5,29.71,WNW,285,3.1,3.1,49,0.00,,---,0.00,VWS V14.01,2013-06-13 23:49:00,
2013-06-13 19:50:00,82.6,61.5,29.71,WNW,285,3.1,3.1,49,0.00,,---,0.00,VWS V14.01,2013-06-13 23:50:00,
2013-06-13 19:53:00,82.6,61.5,29.71,South,176,2.2,2.2,49,0.00,,---,0.00,VWS V14.01,2013-06-13 23:53:00,
2013-06-13 19:54:00,82.2,61.8,29.71,East,88,0.0,2.2,50,0.00,,---,0.00,VWS V14.01,2013-06-13 23:54:00,
2013-06-13 19:55:00,82.2,61.8,29.71,East,88,0.0,2.2,50,0.00,,---,0.00,VWS V14.01,2013-06-13 23:55:00,
2013-06-13 19:58:00,82.0,62.1,29.71,South,181,3.6,3.6,51,0.00,,---,0.00,VWS V14.01,2013-06-13 23:58:00,
2013-06-13 19:59:00,82.0,62.1,29.71,South,181,3.6,3.6,51,0.00,,---,0.00,VWS V14.01,2013-06-13 23:59:00,
2013-06-13 20:00:00,82.0,62.1,29.71,South,183,3.6,3.6,51,0.00,,---,0.00,VWS V14.01,2013-06-14 00:00:00,
2013-06-13 20:03:00,82.0,62.1,29.71,SSW,210,3.6,3.6,51,0.00,,---,0.00,VWS V14.01,2013-06-14 00:03:00,
2013-06-13 20:05:00,81.9,62.0,29.71,SSW,210,3.6,3.6,51,0.00,,---,0.00,VWS V14.01,2013-06-14 00:05:00,
2013-06-13 20:08:00,81.9,62.0,29.71,SSE,157,2.7,2.7,51,0.00,,---,0.00,VWS V14.01,2013-06-14 00:08:00,
2013-06-13 20:10:00,81.9,62.0,29.71,SE,134,2.2,2.7,51,0.00,,---,0.00,VWS V14.01,2013-06-14 00:10:00,
2013-06-13 20:13:00,81.9,62.0,29.71,NW,322,2.2,2.2,51,0.00,,---,0.00,VWS V14.01,2013-06-14 00:13:00,
2013-06-13 20:15:00,81.9,62.0,29.71,SSE,154,3.1,3.1,51,0.00,,---,0.00,VWS V14.01,2013-06-14 00:15:00,
2013-06-13 20:19:00,81.9,62.0,29.71,SW,220,4.0,4.0,51,0.00,,---,0.00,VWS V14.01,2013-06-14 00:19:00,
2013-06-13 20:20:00,81.7,63.4,29.71,South,181,3.6,4.0,54,0.00,,---,0.00,VWS V14.01,2013-06-14 00:20:00,
2013-06-13 20:23:00,81.7,63.4,29.71,WNW,302,3.6,3.6,54,0.00,,---,0.00,VWS V14.01,2013-06-14 00:23:00,
2013-06-13 20:25:00,81.7,63.4,29.71,WNW,302,3.6,3.6,54,0.00,,---,0.00,VWS V14.01,2013-06-14 00:25:00,
2013-06-13 20:28:00,81.5,63.3,29.71,WNW,294,6.7,6.7,54,0.00,,---,0.00,VWS V14.01,2013-06-14 00:28:00,
2013-06-13 20:30:00,81.5,63.3,29.71,WNW,294,6.7,6.7,54,0.00,,---,0.00,VWS V14.01,2013-06-14 00:30:00,
2013-06-13 20:34:00,81.5,63.3,29.71,WSW,247,8.1,8.1,54,0.00,,---,0.00,VWS V14.01,2013-06-14 00:34:00,
2013-06-13 20:35:00,81.5,63.3,29.71,NW,314,10.1,10.1,54,0.00,,---,0.00,VWS V14.01,2013-06-14 00:35:00,
2013-06-13 20:36:00,81.5,63.3,29.77,WNW,302,10.5,10.5,54,0.00,,---,0.00,VWS V14.01,2013-06-14 00:36:00,
2013-06-13 20:39:00,81.5,63.3,29.77,WNW,302,10.5,10.5,54,0.00,,---,0.00,VWS V14.01,2013-06-14 00:39:00,
2013-06-13 20:40:00,81.5,63.3,29.77,WSW,242,17.4,17.4,54,0.00,,---,0.00,VWS V14.01,2013-06-14 00:40:00,
2013-06-13 20:41:00,81.5,63.3,29.77,WSW,242,17.4,17.4,54,0.00,,---,0.00,VWS V14.01,2013-06-14 00:41:00,
2013-06-13 20:44:00,81.5,63.3,29.77,WNW,287,8.3,14.1,54,0.00,,---,0.00,VWS V14.01,2013-06-14 00:44:00,
2013-06-13 20:45:00,81.5,63.3,29.77,NE,55,5.8,5.8,54,0.00,,---,0.00,VWS V14.01,2013-06-14 00:45:00,
2013-06-13 20:46:00,81.9,47.4,29.77,NE,55,5.8,5.8,30,0.00,,---,0.00,VWS V14.01,2013-06-14 00:46:00,
2013-06-13 20:49:00,81.7,47.3,29.77,West,269,5.4,5.4,30,0.00,,---,0.00,VWS V14.01,2013-06-14 00:49:00,
2013-06-13 20:50:00,81.7,47.3,29.77,WNW,283,5.8,8.7,30,0.00,,---,0.00,VWS V14.01,2013-06-14 00:50:00,
2013-06-13 20:51:00,81.7,47.3,29.77,West,268,5.8,5.8,30,0.00,,---,0.00,VWS V14.01,2013-06-14 00:51:00,
2013-06-13 20:54:00,81.1,46.8,29.77,WNW,296,7.6,7.6,30,0.00,,---,0.00,VWS V14.01,2013-06-14 00:54:00,
2013-06-13 20:55:00,80.6,46.3,29.77,SSW,202,7.6,7.6,30,0.00,,---,0.00,VWS V14.01,2013-06-14 00:55:00,
2013-06-13 20:56:00,80.6,46.3,29.77,SSW,202,7.6,7.6,30,0.00,,---,0.00,VWS V14.01,2013-06-14 00:56:00,
2013-06-13 20:59:00,80.1,46.7,29.77,WNW,302,5.4,5.4,31,0.00,,---,0.00,VWS V14.01,2013-06-14 00:59:00,
2013-06-13 21:00:00,80.1,46.7,29.77,WSW,248,4.9,4.9,31,0.00,,---,0.00,VWS V14.01,2013-06-14 01:00:00,
2013-06-13 21:01:00,80.1,46.7,29.77,WSW,248,4.9,4.9,31,0.00,,---,0.00,VWS V14.01,2013-06-14 01:01:00,
2013-06-13 21:04:00,80.1,46.7,29.77,NW,324,5.4,6.3,31,0.00,,---,0.00,VWS V14.01,2013-06-14 01:04:00,
2013-06-13 21:05:00,80.1,46.7,29.77,NW,324,5.4,5.4,31,0.00,,---,0.00,VWS V14.01,2013-06-14 01:05:00,
2013-06-13 21:06:00,80.1,46.7,29.77,NW,324,5.4,5.4,31,0.00,,---,0.00,VWS V14.01,2013-06-14 01:06:00,
2013-06-13 21:09:00,77.5,46.2,29.77,WNW,286,7.6,7.6,33,0.00,,---,0.00,VWS V14.01,2013-06-14 01:09:00,
2013-06-13 21:10:00,77.5,46.2,29.77,SW,220,8.7,8.7,33,0.00,,---,0.00,VWS V14.01,2013-06-14 01:10:00,
2013-06-13 21:11:00,77.5,46.2,29.77,NW,306,6.3,8.7,33,0.00,,---,0.00,VWS V14.01,2013-06-14 01:11:00,
2013-06-13 21:14:00,75.6,47.5,29.77,NW,306,6.3,6.3,37,0.00,,---,0.00,VWS V14.01,2013-06-14 01:14:00,
2013-06-13 21:15:00,74.8,46.8,29.77,NW,306,6.3,6.3,37,0.00,,---,0.00,VWS V14.01,2013-06-14 01:15:00,
2013-06-13 21:16:00,74.8,46.8,29.77,NW,306,6.3,6.3,37,0.00,,---,0.00,VWS V14.01,2013-06-14 01:16:00,
2013-06-13 21:19:00,74.8,46.8,29.77,NW,306,6.3,6.3,37,0.12,,---,0.12,VWS V14.01,2013-06-14 01:19:00,
2013-06-13 21:20:00,72.5,48.1,29.77,SW,236,0.0,0.0,42,0.12,,---,0.12,VWS V14.01,2013-06-14 01:20:00,
2013-06-13 21:21:00,72.5,48.1,29.77,SW,236,0.0,0.0,42,0.12,,---,0.12,VWS V14.01,2013-06-14 01:21:00,
2013-06-13 21:24:00,71.6,47.9,29.77,West,269,0.0,0.0,43,0.12,,---,0.12,VWS V14.01,2013-06-14 01:24:00,
2013-06-13 21:25:00,71.6,47.9,29.77,South,178,0.0,0.0,43,0.12,,---,0.12,VWS V14.01,2013-06-14 01:25:00,
2013-06-13 21:26:00,71.6,47.9,29.77,South,178,0.0,0.0,43,0.12,,---,0.12,VWS V14.01,2013-06-14 01:26:00,
2013-06-13 21:29:00,71.6,47.9,29.77,SSE,149,0.0,0.0,43,0.12,,---,0.12,VWS V14.01,2013-06-14 01:29:00,
2013-06-13 21:30:00,71.6,47.9,29.77,SSE,149,0.0,0.0,43,0.12,,---,0.12,VWS V14.01,2013-06-14 01:30:00,
2013-06-13 21:31:00,71.6,47.9,29.77,SSE,149,0.0,0.0,43,0.12,,---,0.12,VWS V14.01,2013-06-14 01:31:00,
2013-06-13 21:34:00,70.9,54.4,29.77,SSE,149,0.0,0.0,56,0.12,,---,0.12,VWS V14.01,2013-06-14 01:34:00,
2013-06-13 21:35:00,70.9,54.4,29.77,SW,216,0.0,0.0,56,0.12,,---,0.12,VWS V14.01,2013-06-14 01:35:00,
2013-06-13 21:36:00,70.9,54.4,29.74,SW,218,0.0,0.0,56,0.12,,---,0.12,VWS V14.01,2013-06-14 01:36:00,
2013-06-13 21:39:00,70.5,54.6,29.74,SSE,151,0.0,0.0,57,0.12,,---,0.12,VWS V14.01,2013-06-14 01:39:00,
2013-06-13 21:40:00,70.5,54.6,29.74,SSE,151,0.0,0.0,57,0.12,,---,0.12,VWS V14.01,2013-06-14 01:40:00,
2013-06-13 21:41:00,70.5,54.6,29.74,SSE,151,0.0,0.0,57,0.12,,---,0.12,VWS V14.01,2013-06-14 01:41:00,
2013-06-13 21:44:00,70.5,54.6,29.74,SSE,151,0.0,0.0,57,0.12,,---,0.12,VWS V14.01,2013-06-14 01:44:00,
2013-06-13 21:45:00,70.5,54.6,29.74,SSE,151,0.0,0.0,57,0.12,,---,0.12,VWS V14.01,2013-06-14 01:45:00,
2013-06-13 21:46:00,70.5,55.0,29.74,SSE,151,0.0,0.0,58,0.12,,---,0.12,VWS V14.01,2013-06-14 01:46:00,
2013-06-13 21:47:00,70.5,55.0,29.74,SE,130,0.0,0.0,58,0.12,,---,0.12,VWS V14.01,2013-06-14 01:47:00,
2013-06-13 21:49:00,70.5,55.5,29.74,SE,129,0.0,0.0,59,0.12,,---,0.12,VWS V14.01,2013-06-14 01:49:00,
2013-06-13 21:50:00,70.5,56.4,29.74,SE,129,0.0,0.0,61,0.12,,---,0.12,VWS V14.01,2013-06-14 01:50:00,
2013-06-13 21:51:00,70.5,56.4,29.74,SSE,163,2.7,2.7,61,0.12,,---,0.12,VWS V14.01,2013-06-14 01:51:00,
2013-06-13 21:52:00,70.5,56.4,29.74,SSE,163,2.7,2.7,61,0.12,,---,0.12,VWS V14.01,2013-06-14 01:52:00,
2013-06-13 21:54:00,70.5,56.4,29.74,SSE,164,3.6,3.6,61,0.12,,---,0.12,VWS V14.01,2013-06-14 01:54:00,
2013-06-13 21:55:00,70.5,56.4,29.74,SSE,164,3.6,3.6,61,0.12,,---,0.12,VWS V14.01,2013-06-14 01:55:00,
2013-06-13 21:56:00,70.5,56.4,29.74,SSE,149,0.0,3.6,61,0.12,,---,0.12,VWS V14.01,2013-06-14 01:56:00,
2013-06-13 21:57:00,70.5,56.4,29.74,SSE,149,0.0,0.0,61,0.12,,---,0.12,VWS V14.01,2013-06-14 01:57:00,
2013-06-13 21:59:00,70.7,57.5,29.74,SSE,149,0.0,0.0,63,0.12,,---,0.12,VWS V14.01,2013-06-14 01:59:00,
2013-06-13 22:00:00,70.7,57.5,29.74,SE,135,2.7,2.7,63,0.12,,---,0.12,VWS V14.01,2013-06-14 02:00:00,
2013-06-13 22:01:00,70.7,57.5,29.74,SE,135,2.7,2.7,63,0.12,,---,0.12,VWS V14.01,2013-06-14 02:01:00,
2013-06-13 22:02:00,70.9,57.7,29.74,SSE,153,4.0,4.0,63,0.12,,---,0.12,VWS V14.01,2013-06-14 02:02:00,
2013-06-13 22:04:00,70.9,58.1,29.74,SSE,153,4.0,4.0,64,0.12,,---,0.12,VWS V14.01,2013-06-14 02:04:00,
2013-06-13 22:05:00,70.9,58.1,29.74,SSW,195,0.0,0.0,64,0.12,,---,0.12,VWS V14.01,2013-06-14 02:05:00,
2013-06-13 22:06:00,70.9,58.1,29.74,SSW,195,0.0,0.0,64,0.12,,---,0.12,VWS V14.01,2013-06-14 02:06:00,
2013-06-13 22:07:00,70.9,58.1,29.74,SSE,163,0.0,0.0,64,0.12,,---,0.12,VWS V14.01,2013-06-14 02:07:00,
2013-06-13 22:09:00,70.9,58.1,29.74,SSE,163,0.0,0.0,64,0.12,,---,0.12,VWS V14.01,2013-06-14 02:09:00,
2013-06-13 22:10:00,70.9,58.1,29.74,SSE,163,0.0,0.0,64,0.12,,---,0.12,VWS V14.01,2013-06-14 02:10:00,
2013-06-13 22:11:00,70.9,58.1,29.74,SSE,163,0.0,0.0,64,0.12,,---,0.12,VWS V14.01,2013-06-14 02:11:00,
2013-06-13 22:12:00,70.9,58.1,29.74,SSE,163,0.0,0.0,64,0.12,,---,0.12,VWS V14.01,2013-06-14 02:12:00,
2013-06-13 22:14:00,71.1,58.7,29.74,SSE,160,0.0,0.0,65,0.12,,---,0.12,VWS V14.01,2013-06-14 02:14:00,
2013-06-13 22:15:00,71.1,58.7,29.74,ESE,121,3.6,3.6,65,0.12,,---,0.12,VWS V14.01,2013-06-14 02:15:00,
2013-06-13 22:16:00,71.1,59.1,29.74,ESE,121,3.6,3.6,66,0.12,,---,0.12,VWS V14.01,2013-06-14 02:16:00,
2013-06-13 22:17:00,71.1,59.1,29.74,ESE,121,3.6,3.6,66,0.12,,---,0.12,VWS V14.01,2013-06-14 02:17:00,
2013-06-13 22:19:00,71.1,59.6,29.74,SSE,154,0.0,0.0,67,0.00,,---,0.12,VWS V14.01,2013-06-14 02:19:00,
2013-06-13 22:20:00,71.1,59.6,29.74,SSE,154,0.0,0.0,67,0.00,,---,0.12,VWS V14.01,2013-06-14 02:20:00,
2013-06-13 22:21:00,71.1,59.6,29.74,SSE,154,0.0,0.0,67,0.00,,---,0.12,VWS V14.01,2013-06-14 02:21:00,
2013-06-13 22:22:00,71.1,59.6,29.74,SSE,154,0.0,0.0,67,0.00,,---,0.12,VWS V14.01,2013-06-14 02:22:00,
2013-06-13 22:25:00,71.1,59.6,29.74,West,266,0.0,0.0,67,0.00,,---,0.12,VWS V14.01,2013-06-14 02:25:00,
2013-06-13 22:26:00,71.1,59.6,29.74,West,266,0.0,0.0,67,0.00,,---,0.12,VWS V14.01,2013-06-14 02:26:00,
2013-06-13 22:27:00,71.1,59.6,29.74,West,266,0.0,0.0,67,0.00,,---,0.12,VWS V14.01,2013-06-14 02:27:00,
2013-06-13 22:30:00,71.1,60.4,29.74,WSW,258,2.7,2.7,69,0.00,,---,0.12,VWS V14.01,2013-06-14 02:30:00,
2013-06-13 22:31:00,71.1,60.4,29.74,WSW,258,2.7,2.7,69,0.00,,---,0.12,VWS V14.01,2013-06-14 02:31:00,
2013-06-13 22:32:00,71.1,60.4,29.74,WNW,302,0.0,2.7,69,0.00,,---,0.12,VWS V14.01,2013-06-14 02:32:00,
2013-06-13 22:35:00,71.1,60.4,29.74,WNW,288,0.0,0.0,69,0.00,,---,0.12,VWS V14.01,2013-06-14 02:35:00,
2013-06-13 22:36:00,71.1,60.4,29.74,WNW,288,0.0,0.0,69,0.00,,---,0.12,VWS V14.01,2013-06-14 02:36:00,
2013-06-13 22:37:00,71.1,60.4,29.74,WNW,288,0.0,0.0,69,0.00,,---,0.12,VWS V14.01,2013-06-14 02:37:00,
2013-06-13 22:40:00,71.1,62.4,29.74,NNE,25,2.7,2.7,74,0.00,,---,0.12,VWS V14.01,2013-06-14 02:40:00,
2013-06-13 22:41:00,71.1,62.4,29.74,NNE,25,2.7,2.7,74,0.00,,---,0.12,VWS V14.01,2013-06-14 02:41:00,
2013-06-13 22:42:00,71.2,62.2,29.74,NW,319,0.0,2.7,73,0.00,,---,0.12,VWS V14.01,2013-06-14 02:42:00,
2013-06-13 22:45:00,71.2,62.2,29.74,North,0,0.0,3.1,73,0.00,,---,0.12,VWS V14.01,2013-06-14 02:45:00,
2013-06-13 22:46:00,71.1,62.0,29.74,North,0,0.0,0.0,73,0.00,,---,0.12,VWS V14.01,2013-06-14 02:46:00,
2013-06-13 22:47:00,71.1,62.0,29.74,North,0,0.0,0.0,73,0.00,,---,0.12,VWS V14.01,2013-06-14 02:47:00,
2013-06-13 22:48:00,71.1,62.0,29.74,North,0,0.0,0.0,73,0.00,,---,0.12,VWS V14.01,2013-06-14 02:48:00,
2013-06-13 22:50:00,70.9,61.8,29.74,North,0,0.0,0.0,73,0.00,,---,0.12,VWS V14.01,2013-06-14 02:50:00,
2013-06-13 22:51:00,70.9,61.8,29.74,North,0,0.0,0.0,73,0.00,,---,0.12,VWS V14.01,2013-06-14 02:51:00,
2013-06-13 22:52:00,70.9,61.8,29.74,North,0,0.0,0.0,73,0.00,,---,0.12,VWS V14.01,2013-06-14 02:52:00,
2013-06-13 22:53:00,70.9,61.8,29.74,North,0,0.0,0.0,73,0.00,,---,0.12,VWS V14.01,2013-06-14 02:53:00,
2013-06-13 22:55:00,70.9,61.8,29.74,North,0,0.0,0.0,73,0.00,,---,0.12,VWS V14.01,2013-06-14 02:55:00,
2013-06-13 22:56:00,70.9,62.2,29.74,North,0,0.0,0.0,74,0.00,,---,0.12,VWS V14.01,2013-06-14 02:56:00,
2013-06-13 22:57:00,70.9,62.6,29.74,North,0,0.0,0.0,75,0.00,,---,0.12,VWS V14.01,2013-06-14 02:57:00,
2013-06-13 22:58:00,70.9,62.6,29.74,North,0,0.0,0.0,75,0.00,,---,0.12,VWS V14.01,2013-06-14 02:58:00,
2013-06-13 23:00:00,70.9,62.6,29.74,North,0,0.0,0.0,75,0.00,,---,0.12,VWS V14.01,2013-06-14 03:00:00,
2013-06-13 23:01:00,70.9,62.6,29.74,North,0,0.0,0.0,75,0.00,,---,0.12,VWS V14.01,2013-06-14 03:01:00,
2013-06-13 23:02:00,70.9,62.6,29.74,North,0,0.0,0.0,75,0.00,,---,0.12,VWS V14.01,2013-06-14 03:02:00,
2013-06-13 23:03:00,70.9,62.6,29.74,North,0,0.0,0.0,75,0.00,,---,0.12,VWS V14.01,2013-06-14 03:03:00,
2013-06-13 23:05:00,70.7,62.8,29.74,North,0,0.0,0.0,76,0.00,,---,0.12,VWS V14.01,2013-06-14 03:05:00,
2013-06-13 23:06:00,70.9,63.0,29.74,North,0,0.0,0.0,76,0.00,,---,0.12,VWS V14.01,2013-06-14 03:06:00,
2013-06-13 23:07:00,70.9,63.0,29.74,NW,316,0.0,0.0,76,0.00,,---,0.12,VWS V14.01,2013-06-14 03:07:00,
2013-06-13 23:08:00,70.9,63.3,29.74,NW,316,0.0,0.0,77,0.00,,---,0.12,VWS V14.01,2013-06-14 03:08:00,
2013-06-13 23:10:00,70.9,63.3,29.74,NW,316,0.0,0.0,77,0.00,,---,0.12,VWS V14.01,2013-06-14 03:10:00,
2013-06-13 23:11:00,70.9,63.3,29.74,NW,316,0.0,0.0,77,0.00,,---,0.12,VWS V14.01,2013-06-14 03:11:00,
2013-06-13 23:12:00,70.9,63.3,29.74,NW,316,0.0,0.0,77,0.00,,---,0.12,VWS V14.01,2013-06-14 03:12:00,
2013-06-13 23:13:00,70.9,63.3,29.74,West,276,0.0,0.0,77,0.00,,---,0.12,VWS V14.01,2013-06-14 03:13:00,
2013-06-13 23:15:00,70.9,63.3,29.74,WNW,284,5.4,5.4,77,0.00,,---,0.12,VWS V14.01,2013-06-14 03:15:00,
2013-06-13 23:16:00,70.9,63.3,29.74,WNW,284,5.4,5.4,77,0.00,,---,0.12,VWS V14.01,2013-06-14 03:16:00,
2013-06-13 23:17:00,70.9,64.8,29.74,West,262,5.4,5.4,81,0.00,,---,0.12,VWS V14.01,2013-06-14 03:17:00,
2013-06-13 23:18:00,70.9,64.8,29.74,SW,226,5.8,5.8,81,0.00,,---,0.12,VWS V14.01,2013-06-14 03:18:00,
2013-06-13 23:20:00,70.9,65.1,29.74,SSW,201,4.9,4.9,82,0.04,,---,0.16,VWS V14.01,2013-06-14 03:20:00,
2013-06-13 23:21:00,70.9,65.1,29.74,WNW,298,8.7,8.7,82,0.04,,---,0.16,VWS V14.01,2013-06-14 03:21:00,
2013-06-13 23:22:00,70.7,64.2,29.74,West,267,11.0,11.0,80,0.08,,---,0.20,VWS V14.01,2013-06-14 03:22:00,
2013-06-13 23:23:00,70.5,63.7,29.77,West,267,11.0,11.0,79,0.08,,---,0.20,VWS V14.01,2013-06-14 03:23:00,
2013-06-13 23:25:00,70.5,63.7,29.77,WNW,301,4.0,4.0,79,0.12,,---,0.24,VWS V14.01,2013-06-14 03:25:00,
2013-06-13 23:26:00,70.5,63.7,29.77,WNW,301,4.0,4.0,79,0.12,,---,0.24,VWS V14.01,2013-06-14 03:26:00,
2013-06-13 23:27:00,70.2,63.0,29.77,NW,316,6.3,11.0,78,0.20,,---,0.31,VWS V14.01,2013-06-14 03:27:00,
2013-06-13 23:28:00,70.2,63.0,29.77,NW,316,6.3,11.0,78,0.20,,---,0.31,VWS V14.01,2013-06-14 03:28:00,
2013-06-13 23:30:00,70.0,62.8,29.77,NW,316,6.3,6.3,78,0.24,,---,0.35,VWS V14.01,2013-06-14 03:30:00,
2013-06-13 23:31:00,70.0,62.8,29.77,NW,321,5.4,6.3,78,0.24,,---,0.35,VWS V14.01,2013-06-14 03:31:00,
2013-06-13 23:32:00,69.8,63.0,29.77,NW,321,5.4,5.4,79,0.24,,---,0.35,VWS V14.01,2013-06-14 03:32:00,
2013-06-13 23:33:00,69.8,63.0,29.77,NW,321,5.4,5.4,79,0.24,,---,0.35,VWS V14.01,2013-06-14 03:33:00,
2013-06-13 23:35:00,69.8,63.0,29.77,West,270,2.2,2.2,79,0.24,,---,0.35,VWS V14.01,2013-06-14 03:35:00,
2013-06-13 23:36:00,69.8,63.0,29.77,WNW,289,4.0,4.0,79,0.24,,---,0.35,VWS V14.01,2013-06-14 03:36:00,
2013-06-13 23:38:00,69.8,63.0,29.77,WSW,241,0.0,0.0,79,0.24,,---,0.35,VWS V14.01,2013-06-14 03:38:00,
2013-06-13 23:41:00,69.6,63.2,29.77,WSW,241,0.0,0.0,80,0.24,,---,0.35,VWS V14.01,2013-06-14 03:41:00,
2013-06-13 23:43:00,69.6,63.2,29.77,WSW,241,0.0,0.0,80,0.24,,---,0.35,VWS V14.01,2013-06-14 03:43:00,
2013-06-13 23:46:00,69.6,63.2,29.77,WNW,301,6.7,6.7,80,0.24,,---,0.35,VWS V14.01,2013-06-14 03:46:00,
2013-06-13 23:47:00,69.6,63.2,29.77,WNW,301,6.7,6.7,80,0.24,,---,0.35,VWS V14.01,2013-06-14 03:47:00,
2013-06-13 23:48:00,69.6,63.2,29.77,West,268,5.8,6.7,80,0.28,,---,0.39,VWS V14.01,2013-06-14 03:48:00,
2013-06-13 23:51:00,69.6,63.2,29.77,WSW,252,4.5,4.5,80,0.31,,---,0.43,VWS V14.01,2013-06-14 03:51:00,
2013-06-13 23:52:00,69.6,63.2,29.77,SW,232,2.2,4.5,80,0.31,,---,0.43,VWS V14.01,2013-06-14 03:52:00,
2013-06-13 23:53:00,69.6,63.2,29.80,SW,232,2.2,2.2,80,0.31,,---,0.43,VWS V14.01,2013-06-14 03:53:00,
2013-06-13 23:56:00,69.6,63.2,29.80,West,261,4.0,5.4,80,0.35,,---,0.47,VWS V14.01,2013-06-14 03:56:00,
2013-06-13 23:57:00,69.6,63.2,29.80,West,261,4.0,4.0,80,0.35,,---,0.47,VWS V14.01,2013-06-14 03:57:00,
2013-06-13 23:58:00,69.6,63.5,29.80,West,261,4.0,4.0,81,0.35,,---,0.47,VWS V14.01,2013-06-14 03:58:00,